M I D A S
Marine Information and Data Acquisition System
Tripno 1732 of the Zeeleeuw from 2009-07-08 06:33:02 to 2009-07-08 17:29:49
Back to CruiseResearch ActivitiesStationsMapUnderway DataData graphs

EquipmentUnitsComment
TimeDGPSUTC
LatitudeDGPSDM.mWGS84
LongitudeDGPSDM.mWGS84
TemperatureSBE03/SBE38deg celciusITS90
ConductivitySBE21S/mITS90
SalinitySBE21 Practical Salinity Units
ChlorophylAChelsea fluorimeterg/lCalibrated in Aceton
Missing or incorrect values are displayed as -999
Sea surface data collected by the RV Zeeleeuw from 2009-07-08 06:36:07 to 2009-07-08 17:39:20
                                                                                    Next 1000 lines
Time Latitude Longitude Temperature Conductivity Salinity ChlorophylA
2009-07-08 06:36:17 51°13.663 2°55.955 22.493 2.245491 14.942037 4.745401
2009-07-08 06:36:22 51°13.664 2°55.952 22.5271 2.246524 14.949283 4.745401
2009-07-08 06:36:27 51°13.665 2°55.949 22.542 2.247454 14.956314 4.780225
2009-07-08 06:36:32 51°13.666 2°55.945 22.5457 2.247351 14.955563 4.780225
2009-07-08 06:36:38 51°13.668 2°55.94 22.5349 2.247351 14.955563 4.780225
2009-07-08 06:36:44 51°13.669 2°55.934 22.5399 2.247764 14.958569 4.745401
2009-07-08 06:36:49 51°13.671 2°55.929 22.5502 2.247041 14.953577 4.780225
2009-07-08 06:36:55 51°13.672 2°55.922 22.537 2.247867 14.959589 4.745401
2009-07-08 06:37:00 51°13.674 2°55.916 22.5396 2.248281 14.962863 4.780225
2009-07-08 06:37:05 51°13.676 2°55.909 22.5382 2.247454 14.956851 4.745401
2009-07-08 06:37:11 51°13.678 2°55.901 22.5378 2.247454 14.956851 4.745401
2009-07-08 06:37:16 51°13.679 2°55.894 22.5332 2.247454 14.956851 4.780225
2009-07-08 06:37:20 51°13.68 2°55.888 22.5324 2.247144 14.954597 4.745401
2009-07-08 06:37:25 51°13.682 2°55.881 22.552 2.247661 14.958354 4.780225
2009-07-08 06:37:31 51°13.684 2°55.872 22.5522 2.247661 14.958623 4.780225
2009-07-08 06:37:36 51°13.685 2°55.864 22.5513 2.248177 14.96238 4.780225
2009-07-08 06:37:41 51°13.686 2°55.856 22.5527 2.248177 14.96238 4.780225
2009-07-08 06:37:46 51°13.688 2°55.848 22.5569 2.248177 14.962649 4.780225
2009-07-08 06:37:51 51°13.689 2°55.841 22.5511 2.247867 14.960126 4.780225
2009-07-08 06:37:56 51°13.69 2°55.833 22.5521 2.248384 14.963883 4.745401
2009-07-08 06:38:00 51°13.691 2°55.827 22.5509 2.248281 14.963132 4.745401
2009-07-08 06:38:05 51°13.692 2°55.819 22.5503 2.248591 14.965386 4.780225
2009-07-08 06:38:11 51°13.693 2°55.811 22.5515 2.248591 14.965386 4.780225
2009-07-08 06:38:16 51°13.694 2°55.804 22.5486 2.248281 14.963132 4.780225
2009-07-08 06:38:20 51°13.695 2°55.799 22.5555 2.248591 14.965386 4.745401
2009-07-08 06:38:25 51°13.696 2°55.792 22.5526 2.248177 14.962649 4.780225
2009-07-08 06:38:31 51°13.697 2°55.785 22.5595 2.248591 14.965655 4.780225
2009-07-08 06:38:36 51°13.698 2°55.78 22.5564 2.248281 14.9634 4.780225
2009-07-08 06:38:40 51°13.699 2°55.775 22.5548 2.248281 14.9634 4.780225
2009-07-08 06:38:45 51°13.7 2°55.77 22.5519 2.248487 14.964903 4.745401
2009-07-08 06:38:50 51°13.701 2°55.766 22.5588 2.249314 14.971185 4.780225
2009-07-08 06:38:56 51°13.701 2°55.764 22.578 2.250761 14.982245 4.780225
2009-07-08 06:39:00 51°13.702 2°55.763 22.5721 2.251691 14.98928 4.780225
2009-07-08 06:39:06 51°13.702 2°55.764 22.566 2.250761 14.982514 4.780225
2009-07-08 06:39:11 51°13.703 2°55.764 22.541 2.250761 14.982514 4.780225
2009-07-08 06:39:16 51°13.704 2°55.764 22.512 2.249211 14.97097 4.780225
2009-07-08 06:39:20 51°13.704 2°55.764 22.4888 2.248177 14.963186 4.780225
2009-07-08 06:39:25 51°13.704 2°55.763 22.528 2.247867 14.960394 4.780225
2009-07-08 06:39:31 51°13.703 2°55.761 22.5087 2.249004 14.968393 4.745401
2009-07-08 06:39:36 51°13.703 2°55.759 22.5381 2.247454 14.956851 4.745401
2009-07-08 06:39:41 51°13.702 2°55.756 22.5318 2.247454 14.956851 4.745401
2009-07-08 06:39:46 51°13.701 2°55.753 22.5452 2.247557 14.957603 4.780225
2009-07-08 06:39:51 51°13.7 2°55.75 22.5567 2.248591 14.965118 4.745401
2009-07-08 06:39:56 51°13.699 2°55.748 22.5574 2.248694 14.966138 4.780225
2009-07-08 06:40:00 51°13.698 2°55.745 22.5536 2.249107 14.969413 4.745401
2009-07-08 06:40:06 51°13.698 2°55.743 22.5676 2.251587 14.98799 4.780225
2009-07-08 06:40:11 51°13.698 2°55.742 22.5766 2.251587 14.98799 4.780225
2009-07-08 06:40:16 51°13.699 2°55.742 22.583 2.251691 14.98928 4.745401
2009-07-08 06:40:20 51°13.7 2°55.743 22.5815 2.254067 15.007379 4.780225
2009-07-08 06:40:25 51°13.702 2°55.744 22.5854 2.255514 15.018445 4.780225
2009-07-08 06:40:31 51°13.706 2°55.744 22.5847 2.25634 15.025 4.780225
2009-07-08 06:40:35 51°13.708 2°55.744 22.5837 2.25541 15.018232 4.780225
2009-07-08 06:40:40 51°13.712 2°55.744 22.584 2.25541 15.018232 4.780225
2009-07-08 06:40:45 51°13.716 2°55.743 22.5854 2.258304 15.039559 4.780225
2009-07-08 06:40:51 51°13.721 2°55.74 22.5742 2.256547 15.027044 4.780225
2009-07-08 06:40:56 51°13.726 2°55.737 22.5638 2.256444 15.025752 4.745401
2009-07-08 06:41:00 51°13.73 2°55.733 22.5617 2.255514 15.018175 4.780225
2009-07-08 06:41:05 51°13.735 2°55.729 22.5449 2.254377 15.009096 4.780225
2009-07-08 06:41:10 51°13.741 2°55.724 22.5394 2.254377 15.009096 4.780225
2009-07-08 06:41:15 51°13.747 2°55.718 22.5194 2.252207 14.992231 4.780225
2009-07-08 06:41:20 51°13.754 2°55.713 22.5177 2.252414 14.993197 4.780225
2009-07-08 06:41:25 51°13.761 2°55.706 22.5217 2.252 14.99019 4.745401
2009-07-08 06:41:29 51°13.766 2°55.701 22.5277 2.250451 14.978915 4.780225
2009-07-08 06:41:35 51°13.775 2°55.693 22.5169 2.250657 14.980418 4.780225
2009-07-08 06:41:40 51°13.782 2°55.686 22.5205 2.250657 14.980418 4.780225
2009-07-08 06:41:44 51°13.788 2°55.68 22.5168 2.250347 14.978701 4.780225
2009-07-08 06:41:49 51°13.796 2°55.672 22.522 2.249624 14.973977 4.780225
2009-07-08 06:41:54 51°13.803 2°55.665 22.5293 2.250451 14.980259 4.780225
2009-07-08 06:41:59 51°13.812 2°55.657 22.5341 2.250657 14.982031 4.780225
2009-07-08 06:42:04 51°13.82 2°55.65 22.5452 2.250347 14.979776 4.745401
2009-07-08 06:42:08 51°13.827 2°55.644 22.5535 2.250347 14.979776 4.745401
2009-07-08 06:42:13 51°13.836 2°55.636 22.5479 2.249521 14.973494 4.780225
2009-07-08 06:42:18 51°13.844 2°55.629 22.5508 2.250761 14.982245 4.780225
2009-07-08 06:42:23 51°13.854 2°55.621 22.5524 2.249727 14.97446 4.780225
2009-07-08 06:42:28 51°13.863 2°55.614 22.5461 2.250451 14.979721 4.780225
2009-07-08 06:42:33 51°13.872 2°55.607 22.5507 2.250141 14.977466 4.780225
2009-07-08 06:42:37 51°13.88 2°55.601 22.5463 2.250141 14.977466 4.780225
2009-07-08 06:42:43 51°13.892 2°55.592 22.5553 2.250347 14.979239 4.780225
2009-07-08 06:42:48 51°13.901 2°55.585 22.546 2.249934 14.976232 4.780225
2009-07-08 06:42:53 51°13.911 2°55.578 22.547 2.250037 14.977252 4.780225
2009-07-08 06:42:59 51°13.923 2°55.569 22.5489 2.249727 14.974997 4.780225
2009-07-08 06:43:04 51°13.933 2°55.562 22.5582 2.249417 14.972742 4.780225
2009-07-08 06:43:10 51°13.944 2°55.552 22.5369 2.249417 14.972742 4.780225
2009-07-08 06:43:16 51°13.956 2°55.543 22.5445 2.248177 14.963723 4.780225
2009-07-08 06:43:20 51°13.964 2°55.537 22.5412 2.249107 14.96995 4.780225
2009-07-08 06:43:25 51°13.973 2°55.53 22.5574 2.251484 14.987776 4.780225
2009-07-08 06:43:30 51°13.983 2°55.522 22.5722 2.250141 14.978273 4.780225
2009-07-08 06:43:35 51°13.993 2°55.514 22.5598 2.248281 14.964743 4.780225
2009-07-08 06:43:40 51°14.002 2°55.506 22.5452 2.248281 14.964743 4.780225
2009-07-08 06:43:45 51°14.012 2°55.499 22.5424 2.248901 14.969253 4.780225
2009-07-08 06:43:49 51°14.02 2°55.493 22.5482 2.250244 14.979025 4.780225
2009-07-08 06:43:54 51°14.03 2°55.486 22.5569 2.251381 14.987562 4.780225
2009-07-08 06:44:00 51°14.042 2°55.477 22.5735 2.249727 14.975804 4.780225
2009-07-08 06:44:04 51°14.049 2°55.47 22.5562 2.249417 14.973549 4.780225
2009-07-08 06:44:09 51°14.059 2°55.462 22.5572 2.249417 14.973549 4.780225
2009-07-08 06:44:14 51°14.069 2°55.454 22.5597 2.249831 14.976555 4.780225
2009-07-08 06:44:19 51°14.079 2°55.446 22.5662 2.250141 14.978811 4.780225
2009-07-08 06:44:24 51°14.089 2°55.438 22.5689 2.250554 14.981817 4.780225
2009-07-08 06:44:28 51°14.096 2°55.431 22.5611 2.248797 14.969039 4.780225
2009-07-08 06:44:33 51°14.106 2°55.423 22.5588 2.249314 14.972528 4.780225
2009-07-08 06:44:38 51°14.116 2°55.415 22.5675 2.249314 14.972528 4.780225
2009-07-08 06:44:43 51°14.126 2°55.407 22.5704 2.250554 14.981817 4.780225
2009-07-08 06:44:48 51°14.136 2°55.398 22.5714 2.250037 14.978328 4.780225
2009-07-08 06:44:53 51°14.145 2°55.389 22.5736 2.251381 14.988101 4.780225
2009-07-08 06:44:58 51°14.155 2°55.38 22.5738 2.251174 14.986866 4.780225
2009-07-08 06:45:03 51°14.164 2°55.371 22.573 2.251587 14.990142 4.780225
2009-07-08 06:45:08 51°14.174 2°55.362 22.5726 2.251587 14.990142 4.780225
2009-07-08 06:45:12 51°14.181 2°55.354 22.5512 2.250967 14.985362 4.780225
2009-07-08 06:45:17 51°14.19 2°55.344 22.5583 2.251381 14.98837 4.780225
2009-07-08 06:45:22 51°14.199 2°55.333 22.579 2.252827 14.999164 4.780225
2009-07-08 06:45:27 51°14.208 2°55.323 22.5615 2.253344 15.002924 4.780225
2009-07-08 06:45:32 51°14.217 2°55.312 22.5735 2.25324 15.002172 4.780225
2009-07-08 06:45:36 51°14.225 2°55.303 22.5577 2.25324 15.002172 4.780225
2009-07-08 06:45:42 51°14.235 2°55.289 22.5771 2.253447 15.003676 4.780225
2009-07-08 06:45:46 51°14.242 2°55.279 22.5607 2.252724 14.998413 4.780225
2009-07-08 06:45:52 51°14.253 2°55.264 22.5518 2.254377 15.010173 4.780225
2009-07-08 06:45:56 51°14.26 2°55.254 22.5541 2.255617 15.019466 4.780225
2009-07-08 06:46:02 51°14.27 2°55.238 22.5573 2.251587 14.990411 4.780225
2009-07-08 06:46:06 51°14.277 2°55.227 22.5278 2.251587 14.990411 4.780225
2009-07-08 06:46:12 51°14.287 2°55.211 22.5589 2.249107 14.9721 4.780225
2009-07-08 06:46:16 51°14.294 2°55.199 22.542 2.254274 15.010499 4.780225
2009-07-08 06:46:22 51°14.303 2°55.181 22.5614 2.252414 14.996426 4.780225
2009-07-08 06:46:27 51°14.311 2°55.166 22.5555 2.248487 14.967321 4.780225
2009-07-08 06:46:32 51°14.319 2°55.151 22.5397 2.253447 15.003406 4.780225
2009-07-08 06:46:36 51°14.325 2°55.139 22.5526 2.253447 15.003406 4.780225
2009-07-08 06:46:42 51°14.336 2°55.121 22.5585 2.254997 15.014416 4.780225
2009-07-08 06:46:47 51°14.344 2°55.106 22.5654 2.252207 14.994653 4.780225
2009-07-08 06:46:52 51°14.352 2°55.09 22.5505 2.251277 14.987887 4.780225
2009-07-08 06:46:56 51°14.359 2°55.078 22.5608 2.254894 15.014472 4.780225
2009-07-08 06:47:02 51°14.369 2°55.059 22.506 2.260784 15.058422 4.780225
2009-07-08 06:47:07 51°14.377 2°55.043 22.5327 2.260784 15.058422 4.780225
2009-07-08 06:47:12 51°14.385 2°55.026 22.511 2.256857 15.02957 4.780225
2009-07-08 06:47:17 51°14.392 2°55.01 22.5013 2.250864 14.984073 4.780225
2009-07-08 06:47:21 51°14.398 2°54.997 22.5357 2.255307 15.016132 4.780225
2009-07-08 06:47:27 51°14.408 2°54.978 22.4874 2.25448 15.01362 4.780225
2009-07-08 06:47:32 51°14.416 2°54.962 22.4962 2.250657 14.987681 4.780225
2009-07-08 06:47:37 51°14.424 2°54.946 22.5074 2.250657 14.987681 4.780225
2009-07-08 06:47:41 51°14.431 2°54.934 22.5235 2.254067 15.008187 4.780225
2009-07-08 06:47:46 51°14.441 2°54.92 22.5287 2.255927 15.020644 4.780225
2009-07-08 06:47:52 51°14.453 2°54.902 22.528 2.25727 15.030689 4.780225
2009-07-08 06:47:56 51°14.461 2°54.89 22.5081 2.252104 14.993363 4.780225
2009-07-08 06:48:02 51°14.473 2°54.871 22.4709 2.257064 15.029455 4.780225
2009-07-08 06:48:06 51°14.481 2°54.858 22.5053 2.257064 15.029455 4.780225
2009-07-08 06:48:12 51°14.494 2°54.84 22.5305 2.254997 15.014146 4.780225
2009-07-08 06:48:17 51°14.506 2°54.826 22.5204 2.265434 15.090111 4.780225
2009-07-08 06:48:22 51°14.517 2°54.812 22.527 2.257787 15.035799 4.780225
2009-07-08 06:48:27 51°14.529 2°54.798 22.5026 2.258924 15.045963 4.780225
2009-07-08 06:48:32 51°14.541 2°54.783 22.5093 2.26254 15.076354 4.780225
2009-07-08 06:48:37 51°14.554 2°54.77 22.5061 2.26254 15.076354 4.780225
2009-07-08 06:48:42 51°14.566 2°54.755 22.4839 2.256444 15.034929 4.780225
2009-07-08 06:48:47 51°14.579 2°54.742 22.4835 2.254274 15.018588 4.780225
2009-07-08 06:48:52 51°14.592 2°54.728 22.4915 2.26285 15.078612 4.780225
2009-07-08 06:48:56 51°14.602 2°54.718 22.5003 2.257994 15.040543 4.780225
2009-07-08 06:49:02 51°14.617 2°54.701 22.5104 2.254067 15.010343 4.780225
2009-07-08 06:49:07 51°14.63 2°54.688 22.5089 2.254067 15.010343 4.780225
2009-07-08 06:49:12 51°14.643 2°54.674 22.501 2.254067 15.007918 4.780225
2009-07-08 06:49:16 51°14.654 2°54.663 22.502 2.266363 15.093631 4.780225
2009-07-08 06:49:21 51°14.667 2°54.651 22.515 2.25758 15.028629 4.780225
2009-07-08 06:49:27 51°14.682 2°54.635 22.4991 2.260784 15.055449 4.780225
2009-07-08 06:49:32 51°14.696 2°54.622 22.5039 2.257064 15.031344 4.780225
2009-07-08 06:49:36 51°14.706 2°54.612 22.4681 2.257064 15.031344 4.780225
2009-07-08 06:49:42 51°14.722 2°54.597 22.5016 2.262334 15.069977 4.780225
2009-07-08 06:49:47 51°14.735 2°54.584 22.5091 2.257477 15.030574 4.780225
2009-07-08 06:49:52 51°14.748 2°54.571 22.4805 2.262127 15.060091 4.780225
2009-07-08 06:49:57 51°14.761 2°54.558 22.4884 2.26409 15.076542 4.780225
2009-07-08 06:50:02 51°14.774 2°54.544 22.4795 2.25634 15.026079 4.780225
2009-07-08 06:50:07 51°14.787 2°54.531 22.4791 2.25634 15.026079 4.780225
2009-07-08 06:50:12 51°14.8 2°54.516 22.487 2.256444 15.043308 4.780225
2009-07-08 06:50:16 51°14.81 2°54.505 22.4843 2.255205 15.068414 4.780225
2009-07-08 06:50:22 51°14.825 2°54.488 22.4871 2.254688 15.077962 4.780225
2009-07-08 06:50:26 51°14.835 2°54.477 22.4843 2.255102 15.078806 4.780225
2009-07-08 06:50:32 51°14.851 2°54.461 22.4837 2.259855 15.107005 4.780225
2009-07-08 06:50:37 51°14.863 2°54.447 22.4937 2.259855 15.107005 4.780225
2009-07-08 06:50:42 51°14.876 2°54.434 22.5009 2.263781 15.133241 4.780225
2009-07-08 06:50:47 51°14.889 2°54.42 22.4654 2.259441 15.105074 4.780225
2009-07-08 06:50:52 51°14.902 2°54.406 22.4871 2.252932 15.053171 4.780225
2009-07-08 06:50:57 51°14.914 2°54.393 22.4649 2.256238 15.064555 4.780225
2009-07-08 06:51:01 51°14.925 2°54.382 22.4806 2.256238 15.05371 4.780225
2009-07-08 06:51:07 51°14.94 2°54.365 22.4795 2.256238 15.05371 4.780225
2009-07-08 06:51:12 51°14.952 2°54.351 22.4625 2.256444 15.043578 4.780225
2009-07-08 06:51:17 51°14.965 2°54.338 22.4847 2.257891 15.05439 4.780225
2009-07-08 06:51:22 51°14.977 2°54.324 22.4673 2.259337 15.071165 4.780225
2009-07-08 06:51:27 51°14.99 2°54.311 22.4833 2.254171 15.041889 4.780225
2009-07-08 06:51:32 51°15.002 2°54.297 22.4695 2.256858 15.077498 4.780225
2009-07-08 06:51:36 51°15.012 2°54.286 22.4814 2.256858 15.077498 4.780225
2009-07-08 06:51:42 51°15.027 2°54.27 22.4695 2.253035 15.062073 4.780225
2009-07-08 06:51:47 51°15.04 2°54.256 22.4875 2.258822 15.109811 4.780225
2009-07-08 06:51:52 51°15.052 2°54.243 22.4586 2.256858 15.087288 4.780225
2009-07-08 06:51:57 51°15.065 2°54.228 22.4907 2.258408 15.086097 4.780225
2009-07-08 06:52:01 51°15.074 2°54.217 22.475 2.256031 15.053287 4.780225
2009-07-08 06:52:07 51°15.089 2°54.201 22.4607 2.256031 15.053287 4.780225
2009-07-08 06:52:12 51°15.102 2°54.187 22.4813 2.257684 15.062362 4.780225
2009-07-08 06:52:17 51°15.114 2°54.173 22.4851 2.262127 15.094494 4.780225
2009-07-08 06:52:21 51°15.124 2°54.162 22.4696 2.252311 15.019675 4.780225
2009-07-08 06:52:27 51°15.139 2°54.146 22.4663 2.256134 15.043483 4.780225
2009-07-08 06:52:32 51°15.151 2°54.131 22.4737 2.254998 15.04115 4.780225
2009-07-08 06:52:37 51°15.164 2°54.117 22.4614 2.254998 15.04115 4.780225
2009-07-08 06:52:42 51°15.176 2°54.103 22.4756 2.249108 15.011454 4.780225
2009-07-08 06:52:47 51°15.188 2°54.089 22.4803 2.263265 15.134651 4.780225
2009-07-08 06:52:52 51°15.201 2°54.075 22.4839 2.259338 15.10323 4.780225
2009-07-08 06:52:57 51°15.213 2°54.06 22.4684 2.250865 15.034828 4.780225
2009-07-08 06:53:02 51°15.225 2°54.046 22.4686 2.245182 14.996321 4.780225
2009-07-08 06:53:07 51°15.238 2°54.032 22.4615 2.245182 14.996321 4.780225
2009-07-08 06:53:12 51°15.25 2°54.017 22.4785 2.252105 15.054464 4.780225
2009-07-08 06:53:17 51°15.262 2°54.003 22.4812 2.263162 15.141818 4.780225
2009-07-08 06:53:21 51°15.272 2°53.992 22.4702 2.259751 15.107067 4.780225
2009-07-08 06:53:27 51°15.287 2°53.975 22.4854 2.261818 15.113991 4.780225
2009-07-08 06:53:32 51°15.3 2°53.961 22.4704 2.262128 15.109992 4.780225
2009-07-08 06:53:37 51°15.312 2°53.947 22.4684 2.262128 15.109992 4.780225
2009-07-08 06:53:41 51°15.323 2°53.936 22.4729 2.252311 15.034279 4.780225
2009-07-08 06:53:47 51°15.338 2°53.918 22.46 2.260268 15.092335 4.780225
2009-07-08 06:53:52 51°15.35 2°53.905 22.4826 2.273495 15.209444 4.780225
2009-07-08 06:53:57 51°15.363 2°53.892 22.4745 2.259028 15.102326 4.780225
2009-07-08 06:54:01 51°15.373 2°53.88 22.463 2.262128 15.106998 4.780225
2009-07-08 06:54:07 51°15.388 2°53.865 22.472 2.262128 15.106998 4.780225
2009-07-08 06:54:12 51°15.4 2°53.851 22.4785 2.255515 15.058734 4.780225
2009-07-08 06:54:16 51°15.411 2°53.84 22.4737 2.256341 15.059884 4.780225
2009-07-08 06:54:21 51°15.423 2°53.826 22.4779 2.254584 15.03381 4.780225
2009-07-08 06:54:27 51°15.438 2°53.809 22.4644 2.256341 15.043095 4.780225
2009-07-08 06:54:32 51°15.451 2°53.795 22.4852 2.255721 15.04507 4.780225
2009-07-08 06:54:37 51°15.464 2°53.781 22.463 2.255721 15.04507 4.780225
2009-07-08 06:54:41 51°15.474 2°53.77 22.4802 2.259338 15.106226 4.780225
2009-07-08 06:54:47 51°15.489 2°53.753 22.4746 2.262645 15.153359 4.780225
2009-07-08 06:54:52 51°15.502 2°53.739 22.4657 2.257686 15.125804 4.780225
2009-07-08 06:54:57 51°15.515 2°53.724 22.4706 2.260786 15.151246 4.780225
2009-07-08 06:55:02 51°15.528 2°53.71 22.4771 2.262646 15.166518 4.780225
2009-07-08 06:55:07 51°15.54 2°53.696 22.4804 2.262646 15.166518 4.780225
2009-07-08 06:55:12 51°15.552 2°53.681 22.4829 2.254379 15.105965 4.780225
2009-07-08 06:55:17 51°15.565 2°53.667 22.4836 2.254482 15.108362 4.780225
2009-07-08 06:55:21 51°15.575 2°53.655 22.4662 2.254793 15.113914 4.780225
2009-07-08 06:55:27 51°15.59 2°53.638 22.4955 2.280419 15.303166 4.780225
2009-07-08 06:55:32 51°15.602 2°53.625 22.4684 2.274012 15.245408 4.780225
2009-07-08 06:55:37 51°15.615 2°53.61 22.4877 2.274012 15.245408 4.780225
2009-07-08 06:55:42 51°15.627 2°53.596 22.4811 2.257788 15.100893 4.780225
2009-07-08 06:55:47 51°15.639 2°53.581 22.4855 2.265228 15.156385 4.780225
2009-07-08 06:55:52 51°15.652 2°53.567 22.4802 2.259648 15.122133 4.780225
2009-07-08 06:55:57 51°15.665 2°53.552 22.485 2.253242 15.069021 4.780225
2009-07-08 06:56:01 51°15.675 2°53.541 22.475 2.258098 15.105068 4.780225
2009-07-08 06:56:07 51°15.69 2°53.523 22.4789 2.258098 15.105068 4.780225
2009-07-08 06:56:12 51°15.702 2°53.508 22.485 2.255309 15.089847 4.780225
2009-07-08 06:56:17 51°15.715 2°53.493 22.4822 2.250349 15.056844 4.780225
2009-07-08 06:56:21 51°15.725 2°53.482 22.4828 2.256652 15.105126 4.780225
2009-07-08 06:56:27 51°15.741 2°53.465 22.4837 2.255309 15.099664 4.780225
2009-07-08 06:56:32 51°15.754 2°53.451 22.4874 2.259029 15.129348 4.780225
2009-07-08 06:56:36 51°15.764 2°53.44 22.4831 2.259029 15.129348 4.780225
2009-07-08 06:56:41 51°15.777 2°53.426 22.4864 2.258719 15.130908 4.780225
2009-07-08 06:56:47 51°15.792 2°53.41 22.489 2.253759 15.093779 4.780225
2009-07-08 06:56:52 51°15.805 2°53.396 22.475 2.255826 15.107267 4.780225
2009-07-08 06:56:57 51°15.818 2°53.383 22.4798 2.275045 15.246364 4.780225
2009-07-08 06:57:01 51°15.829 2°53.373 22.4849 2.263059 15.154194 4.780225
2009-07-08 06:57:07 51°15.844 2°53.356 22.4883 2.263059 15.154194 4.780225
2009-07-08 06:57:12 51°15.857 2°53.342 22.4893 2.256135 15.102711 4.780225
2009-07-08 06:57:17 51°15.87 2°53.328 22.4786 2.259029 15.122514 4.780225
2009-07-08 06:57:21 51°15.88 2°53.318 22.4703 2.252622 15.074558 4.780225
2009-07-08 06:57:27 51°15.896 2°53.301 22.4881 2.274528 15.234593 4.780225
2009-07-08 06:57:32 51°15.909 2°53.288 22.4909 2.253759 15.083143 4.780225
2009-07-08 06:57:37 51°15.922 2°53.276 22.4848 2.253759 15.083143 4.780225
2009-07-08 06:57:42 51°15.936 2°53.263 22.5007 2.255515 15.097356 4.780225
2009-07-08 06:57:47 51°15.949 2°53.251 22.4799 2.270912 15.218562 4.780225
2009-07-08 06:57:52 51°15.963 2°53.24 22.496 2.272565 15.237287 4.780225
2009-07-08 06:57:57 51°15.976 2°53.227 22.4884 2.255826 15.10836 4.780225
2009-07-08 06:58:02 51°15.989 2°53.215 22.496 2.262335 15.145615 4.780225
2009-07-08 06:58:07 51°16.002 2°53.203 22.4864 2.262335 15.145615 4.780225
2009-07-08 06:58:12 51°16.016 2°53.191 22.4941 2.255929 15.104201 4.780225
2009-07-08 06:58:16 51°16.027 2°53.181 22.4853 2.261922 15.149433 4.780225
2009-07-08 06:58:21 51°16.04 2°53.169 22.4906 2.256445 15.103887 4.780225
2009-07-08 06:58:27 51°16.056 2°53.154 22.4835 2.257272 15.110754 4.780225
2009-07-08 06:58:32 51°16.07 2°53.143 22.4806 2.260165 15.133839 4.780225
2009-07-08 06:58:36 51°16.081 2°53.133 22.4779 2.260165 15.133839 4.780225
2009-07-08 06:58:42 51°16.097 2°53.119 22.4897 2.250659 15.062104 4.780225
2009-07-08 06:58:47 51°16.11 2°53.106 22.4899 2.261199 15.137025 4.780225
2009-07-08 06:58:52 51°16.124 2°53.094 22.4934 2.266158 15.172773 4.780225
2009-07-08 06:58:57 51°16.138 2°53.082 22.4996 2.243839 15.008979 4.780225
2009-07-08 06:59:01 51°16.148 2°53.072 22.4879 2.264815 15.163216 4.780225
2009-07-08 06:59:07 51°16.165 2°53.058 22.4924 2.264815 15.163216 4.780225
2009-07-08 06:59:12 51°16.178 2°53.046 22.4955 2.253759 15.082054 4.780225
2009-07-08 06:59:17 51°16.192 2°53.035 22.4847 2.255309 15.096663 4.780225
2009-07-08 06:59:21 51°16.203 2°53.026 22.5013 2.259959 15.131506 4.780225
2009-07-08 06:59:27 51°16.219 2°53.012 22.4931 2.256239 15.099374 4.780225
2009-07-08 06:59:32 51°16.233 2°53.001 22.5009 2.257272 15.10175 4.780225
2009-07-08 06:59:37 51°16.246 2°52.99 22.5018 2.257272 15.10175 4.780225
2009-07-08 06:59:42 51°16.26 2°52.979 22.503 2.267398 15.169792 4.780225
2009-07-08 06:59:47 51°16.274 2°52.968 22.4901 2.264608 15.149116 4.780225
2009-07-08 06:59:52 51°16.288 2°52.958 22.4893 2.262438 15.141448 4.780225
2009-07-08 06:59:57 51°16.302 2°52.947 22.4979 2.259648 15.120768 4.780225
2009-07-08 07:00:01 51°16.313 2°52.939 22.4915 2.263575 15.148669 4.780225
2009-07-08 07:00:07 51°16.33 2°52.926 22.4882 2.263575 15.148669 4.780225
2009-07-08 07:00:12 51°16.344 2°52.916 22.5003 2.255825 15.105083 4.780225
2009-07-08 07:00:17 51°16.358 2°52.907 22.4906 2.266056 15.192878 4.780225
2009-07-08 07:00:21 51°16.369 2°52.899 22.4998 2.260682 15.15707 4.780225
2009-07-08 07:00:27 51°16.387 2°52.888 22.4872 2.263576 15.182672 4.780225
2009-07-08 07:00:32 51°16.401 2°52.878 22.5009 2.253553 15.111121 4.780225
2009-07-08 07:00:36 51°16.412 2°52.87 22.5027 2.253553 15.111121 4.780225
2009-07-08 07:00:42 51°16.43 2°52.86 22.4929 2.255826 15.125591 4.780225
2009-07-08 07:00:47 51°16.444 2°52.852 22.4953 2.24725 15.059209 4.780225
2009-07-08 07:00:52 51°16.459 2°52.844 22.5046 2.253553 15.10483 4.780225
2009-07-08 07:00:57 51°16.474 2°52.837 22.4952 2.258409 15.135481 4.780225
2009-07-08 07:01:01 51°16.485 2°52.832 22.5011 2.257376 15.124081 4.780225
2009-07-08 07:01:07 51°16.503 2°52.823 22.491 2.257376 15.124081 4.780225
2009-07-08 07:01:12 51°16.517 2°52.816 22.4957 2.251796 15.080227 4.780225
2009-07-08 07:01:17 51°16.532 2°52.809 22.4968 2.251176 15.073509 4.780225
2009-07-08 07:01:21 51°16.543 2°52.803 22.4986 2.254689 15.097856 4.780225
2009-07-08 07:01:27 51°16.561 2°52.795 22.4933 2.255929 15.10857 4.780225
2009-07-08 07:01:32 51°16.575 2°52.788 22.4915 2.257995 15.124245 4.780225
2009-07-08 07:01:37 51°16.59 2°52.783 22.5062 2.257995 15.124245 4.780225
2009-07-08 07:01:42 51°16.604 2°52.777 22.5098 2.254689 15.101405 4.780225
2009-07-08 07:01:47 51°16.619 2°52.771 22.5082 2.259442 15.138121 4.780225
2009-07-08 07:01:52 51°16.634 2°52.765 22.5011 2.245389 15.036607 4.780225
2009-07-08 07:01:57 51°16.648 2°52.759 22.5003 2.260992 15.154953 4.780225
2009-07-08 07:02:01 51°16.66 2°52.754 22.4974 2.260476 15.156105 4.780225
2009-07-08 07:02:07 51°16.678 2°52.748 22.5107 2.260476 15.156105 4.780225
2009-07-08 07:02:12 51°16.693 2°52.743 22.5079 2.256549 15.134454 4.780225
2009-07-08 07:02:17 51°16.708 2°52.738 22.5159 2.261406 15.171709 4.780225
2009-07-08 07:02:21 51°16.719 2°52.734 22.5144 2.262853 15.183143 4.780225
2009-07-08 07:02:27 51°16.737 2°52.729 22.5031 2.255413 15.124753 4.780225
2009-07-08 07:02:32 51°16.752 2°52.724 22.5146 2.255206 15.11366 4.780225
2009-07-08 07:02:37 51°16.767 2°52.72 22.5126 2.255206 15.11366 4.780225
2009-07-08 07:02:42 51°16.781 2°52.715 22.5014 2.255826 15.109453 4.780225
2009-07-08 07:02:47 51°16.796 2°52.71 22.5234 2.248592 15.051069 4.780225
2009-07-08 07:02:52 51°16.811 2°52.706 22.512 2.267399 15.185963 4.780225
2009-07-08 07:02:57 51°16.825 2°52.702 22.5143 2.249109 15.054032 4.780225
2009-07-08 07:03:01 51°16.837 2°52.697 22.5035 2.258822 15.125648 4.780225
2009-07-08 07:03:07 51°16.854 2°52.692 22.5132 2.258822 15.125648 4.780225
2009-07-08 07:03:12 51°16.869 2°52.687 22.5229 2.257272 15.119223 4.780225
2009-07-08 07:03:17 51°16.883 2°52.683 22.5042 2.265125 15.172611 4.780225
2009-07-08 07:03:21 51°16.895 2°52.681 22.5223 2.268328 15.191674 4.780225
2009-07-08 07:03:27 51°16.912 2°52.676 22.5166 2.259029 15.12388 4.780225
2009-07-08 07:03:32 51°16.926 2°52.673 22.5094 2.276595 15.262962 4.780225
2009-07-08 07:03:37 51°16.941 2°52.669 22.5214 2.276595 15.262962 4.780225
2009-07-08 07:03:41 51°16.953 2°52.667 22.516 2.251279 15.079445 4.780225
2009-07-08 07:03:47 51°16.97 2°52.662 22.5181 2.252312 15.081009 4.780225
2009-07-08 07:03:52 51°16.985 2°52.659 22.5107 2.256755 15.109158 4.780225
2009-07-08 07:03:57 51°16.999 2°52.656 22.5293 2.255205 15.096452 4.780225
2009-07-08 07:04:02 51°17.014 2°52.653 22.5131 2.258305 15.125967 4.780225
2009-07-08 07:04:07 51°17.029 2°52.65 22.52 2.258305 15.125967 4.780225
2009-07-08 07:04:12 51°17.043 2°52.647 22.5305 2.240843 15.000626 4.780225
2009-07-08 07:04:17 51°17.058 2°52.643 22.5214 2.268742 15.201842 4.780225
2009-07-08 07:04:21 51°17.069 2°52.641 22.5223 2.254482 15.095525 4.780225
2009-07-08 07:04:27 51°17.087 2°52.637 22.5122 2.250969 15.070362 4.780225
2009-07-08 07:04:32 51°17.102 2°52.635 22.5163 2.256342 15.112688 4.780225
2009-07-08 07:04:37 51°17.116 2°52.633 22.5222 2.256342 15.112688 4.780225
2009-07-08 07:04:42 51°17.131 2°52.634 22.5132 2.24167 15.00803 4.780225
2009-07-08 07:04:47 51°17.145 2°52.632 22.5072 2.276079 15.263592 4.780225
2009-07-08 07:04:52 51°17.16 2°52.636 22.5129 2.257582 15.1297 4.780225
2009-07-08 07:04:57 51°17.174 2°52.637 22.5149 2.253346 15.095393 4.780225
2009-07-08 07:05:01 51°17.185 2°52.641 22.5154 2.262645 15.160209 4.780225
2009-07-08 07:05:07 51°17.202 2°52.648 22.5157 2.262645 15.160209 4.780225
2009-07-08 07:05:12 51°17.215 2°52.656 22.5309 2.245286 15.034492 4.815049
2009-07-08 07:05:17 51°17.228 2°52.663 22.5297 2.288272 15.348569 4.815049
2009-07-08 07:05:21 51°17.238 2°52.671 22.5109 2.251382 15.081838 4.815049
2009-07-08 07:05:27 51°17.254 2°52.682 22.517 2.303463 15.472048 4.815049
2009-07-08 07:05:32 51°17.267 2°52.693 22.5297 2.247456 15.072727 4.815049
2009-07-08 07:05:36 51°17.276 2°52.702 22.5244 2.247456 15.072727 4.815049
2009-07-08 07:05:41 51°17.288 2°52.714 22.5274 2.274116 15.263008 4.815049
2009-07-08 07:05:47 51°17.301 2°52.731 22.5143 2.288789 15.36709 4.815049
2009-07-08 07:05:52 51°17.312 2°52.746 22.5164 2.276389 15.273879 4.815049
2009-07-08 07:05:57 51°17.321 2°52.762 22.5298 2.333433 15.697739 4.815049
2009-07-08 07:06:01 51°17.329 2°52.775 22.5234 2.217905 14.847422 4.815049
2009-07-08 07:06:07 51°17.34 2°52.795 22.5251 2.217905 14.847422 4.815049
2009-07-08 07:06:12 51°17.35 2°52.811 22.5265 2.311111 15.530195 4.849873
2009-07-08 07:06:17 51°17.358 2°52.83 22.5137 2.214082 14.816246 4.815049
2009-07-08 07:06:21 51°17.366 2°52.842 22.5234 2.256446 15.118639 4.849873
2009-07-08 07:06:27 51°17.375 2°52.865 22.5197 2.241979 15.006498 4.849873
2009-07-08 07:06:32 51°17.385 2°52.881 22.5213 2.212325 14.787083 4.849873
2009-07-08 07:06:37 51°17.393 2°52.901 22.5294 2.212325 14.787083 4.849873
2009-07-08 07:06:42 51°17.402 2°52.919 22.5327 2.219041 14.834791 4.849873
2009-07-08 07:06:47 51°17.41 2°52.938 22.5222 2.215632 14.812031 4.849873
2009-07-08 07:06:52 51°17.418 2°52.956 22.5292 2.215322 14.812444 4.849873
2009-07-08 07:06:57 51°17.427 2°52.975 22.5369 2.197034 14.681837 4.849873
2009-07-08 07:07:02 51°17.434 2°52.994 22.5227 2.202407 14.730116 4.849873
2009-07-08 07:07:07 51°17.443 2°53.012 22.5254 2.202407 14.730116 4.849873
2009-07-08 07:07:12 51°17.451 2°53.032 22.5305 2.193935 14.67434 4.849873
2009-07-08 07:07:17 51°17.46 2°53.049 22.5298 2.203647 14.744511 4.849873
2009-07-08 07:07:21 51°17.466 2°53.065 22.5269 2.182467 14.586884 4.849873
2009-07-08 07:07:27 51°17.476 2°53.086 22.527 2.191145 14.648923 4.849873
2009-07-08 07:07:32 51°17.485 2°53.105 22.5412 2.195175 14.673835 4.849873
2009-07-08 07:07:36 51°17.492 2°53.119 22.5322 2.195175 14.673835 4.849873
2009-07-08 07:07:42 51°17.501 2°53.142 22.5242 2.178541 14.547172 4.849873
2009-07-08 07:07:47 51°17.512 2°53.156 22.5414 2.196931 14.672594 4.849873
2009-07-08 07:07:52 51°17.52 2°53.175 22.5276 2.185876 14.586172 4.884697
2009-07-08 07:07:57 51°17.531 2°53.19 22.5396 2.183706 14.561682 4.849873
2009-07-08 07:08:01 51°17.538 2°53.204 22.5371 2.18102 14.539497 4.849873
2009-07-08 07:08:07 51°17.549 2°53.224 22.5321 2.18102 14.539497 4.849873
2009-07-08 07:08:12 51°17.559 2°53.24 22.5411 2.192901 14.626818 4.849873
2009-07-08 07:08:17 51°17.568 2°53.256 22.5341 2.187219 14.587794 4.849873
2009-07-08 07:08:21 51°17.576 2°53.268 22.5409 2.179367 14.532182 4.849873
2009-07-08 07:08:27 51°17.588 2°53.288 22.5416 2.195587 14.653794 4.849873
2009-07-08 07:08:32 51°17.597 2°53.305 22.5397 2.180607 14.546462 4.884697
2009-07-08 07:08:37 51°17.607 2°53.32 22.5488 2.180607 14.546462 4.884697
2009-07-08 07:08:42 51°17.616 2°53.337 22.5399 2.186496 14.59728 4.849873
2009-07-08 07:08:47 51°17.626 2°53.353 22.5439 2.181847 14.563648 4.849873
2009-07-08 07:08:52 51°17.635 2°53.369 22.5434 2.191042 14.63096 4.849873
2009-07-08 07:08:57 51°17.644 2°53.386 22.5395 2.185463 14.591593 4.849873
2009-07-08 07:09:02 51°17.654 2°53.402 22.5552 2.189389 14.619168 4.849873
2009-07-08 07:09:07 51°17.662 2°53.42 22.5399 2.189389 14.619168 4.849873
2009-07-08 07:09:12 51°17.671 2°53.436 22.5412 2.175648 14.516892 4.849873
2009-07-08 07:09:17 51°17.68 2°53.453 22.5517 2.193005 14.64819 4.849873
2009-07-08 07:09:22 51°17.689 2°53.471 22.548 2.191765 14.635177 4.849873
2009-07-08 07:09:27 51°17.698 2°53.487 22.5565 2.186909 14.594756 4.849873
2009-07-08 07:09:32 51°17.707 2°53.504 22.5453 2.188975 14.60507 4.815049
2009-07-08 07:09:37 51°17.716 2°53.52 22.5621 2.187735 14.59788 4.849873
2009-07-08 07:09:42 51°17.724 2°53.538 22.5535 2.187735 14.59788 4.849873
2009-07-08 07:09:47 51°17.734 2°53.554 22.5603 2.195588 14.659617 4.815049
2009-07-08 07:09:52 51°17.742 2°53.572 22.5512 2.18443 14.582742 4.849873
2009-07-08 07:09:56 51°17.75 2°53.585 22.5509 2.179884 14.552757 4.849873
2009-07-08 07:10:01 51°17.759 2°53.602 22.5568 2.186496 14.603878 4.849873
2009-07-08 07:10:07 51°17.769 2°53.624 22.5588 2.186496 14.603878 4.849873
2009-07-08 07:10:12 51°17.779 2°53.639 22.5566 2.190319 14.628593 4.849873
2009-07-08 07:10:16 51°17.786 2°53.653 22.5609 2.180504 14.557277 4.849873
2009-07-08 07:10:21 51°17.795 2°53.669 22.5602 2.187219 14.604665 4.849873
2009-07-08 07:10:27 51°17.806 2°53.69 22.5591 2.186806 14.600068 4.849873
2009-07-08 07:10:32 51°17.815 2°53.706 22.5717 2.18133 14.560671 4.849873
2009-07-08 07:10:36 51°17.822 2°53.72 22.5617 2.18133 14.560671 4.849873
2009-07-08 07:10:41 51°17.832 2°53.736 22.5647 2.1835 14.575172 4.849873
2009-07-08 07:10:47 51°17.842 2°53.757 22.5692 2.184946 14.587826 4.815049
2009-07-08 07:10:52 51°17.851 2°53.774 22.5663 2.181227 14.570451 4.849873
2009-07-08 07:10:56 51°17.859 2°53.786 22.5698 2.179574 14.572891 4.815049
2009-07-08 07:11:01 51°17.868 2°53.805 22.571 2.185257 14.613596 4.849873
2009-07-08 07:11:06 51°17.877 2°53.82 22.5718 2.185257 14.613596 4.849873
2009-07-08 07:11:11 51°17.886 2°53.838 22.5743 2.18226 14.577725 4.849873
2009-07-08 07:11:17 51°17.897 2°53.857 22.5751 2.189802 14.62985 4.849873
2009-07-08 07:11:21 51°17.904 2°53.872 22.5678 2.187942 14.613637 4.849873
2009-07-08 07:11:27 51°17.915 2°53.892 22.5722 2.178851 14.547854 4.849873
2009-07-08 07:11:31 51°17.922 2°53.905 22.5726 2.183396 14.578897 4.815049
2009-07-08 07:11:37 51°17.932 2°53.926 22.5816 2.183396 14.578897 4.815049
2009-07-08 07:11:41 51°17.94 2°53.939 22.5707 2.191145 14.635152 4.815049
2009-07-08 07:11:45 51°17.946 2°53.953 22.5738 2.177197 14.52556 4.849873
2009-07-08 07:11:51 51°17.958 2°53.972 22.5829 2.188975 14.616154 4.815049
2009-07-08 07:11:57 51°17.968 2°53.993 22.5766 2.180194 14.550809 4.849873
2009-07-08 07:12:02 51°17.977 2°54.009 22.5814 2.191352 14.62767 4.815049
2009-07-08 07:12:07 51°17.986 2°54.026 22.5861 2.191352 14.62767 4.815049
2009-07-08 07:12:11 51°17.993 2°54.04 22.5723 2.185669 14.585983 4.849873
2009-07-08 07:12:17 51°18.004 2°54.059 22.5747 2.184843 14.581802 4.815049
2009-07-08 07:12:21 51°18.011 2°54.073 22.5787 2.182157 14.565907 4.815049
2009-07-08 07:12:27 51°18.021 2°54.093 22.5688 2.185359 14.58873 4.815049
2009-07-08 07:12:31 51°18.028 2°54.107 22.5805 2.190422 14.634373 4.815049
2009-07-08 07:12:37 51°18.038 2°54.128 22.5792 2.190422 14.634373 4.815049
2009-07-08 07:12:41 51°18.044 2°54.143 22.5812 2.174615 14.522747 4.849873
2009-07-08 07:12:46 51°18.054 2°54.159 22.5855 2.189596 14.630194 4.815049
2009-07-08 07:12:51 51°18.06 2°54.179 22.5783 2.177301 14.546286 4.849873
2009-07-08 07:12:57 51°18.07 2°54.2 22.5849 2.178954 14.550186 4.815049
2009-07-08 07:13:01 51°18.076 2°54.215 22.595 2.185669 14.59521 4.815049
2009-07-08 07:13:06 51°18.082 2°54.235 22.5806 2.185669 14.59521 4.815049
2009-07-08 07:13:11 51°18.09 2°54.253 22.5842 2.174925 14.51818 4.849873
2009-07-08 07:13:17 51°18.099 2°54.275 22.597 2.186186 14.601881 4.815049
2009-07-08 07:13:21 51°18.103 2°54.291 22.5778 2.183397 14.581797 4.815049
2009-07-08 07:13:26 51°18.111 2°54.31 22.5927 2.175648 14.52529 4.815049
2009-07-08 07:13:31 51°18.118 2°54.329 22.5895 2.187839 14.619492 4.815049
2009-07-08 07:13:36 51°18.124 2°54.348 22.5869 2.187839 14.619492 4.815049
2009-07-08 07:13:41 51°18.131 2°54.368 22.5952 2.172859 14.505478 4.849873
2009-07-08 07:13:47 51°18.139 2°54.391 22.609 2.198997 14.691385 4.815049
2009-07-08 07:13:53 51°18.146 2°54.414 22.5718 2.18071 14.55931 4.849873
2009-07-08 07:13:57 51°18.153 2°54.428 22.5882 2.190422 14.620627 4.815049
2009-07-08 07:14:01 51°18.157 2°54.443 22.6064 2.184223 14.584925 4.815049
2009-07-08 07:14:07 51°18.164 2°54.467 22.5866 2.184223 14.584925 4.815049
2009-07-08 07:14:11 51°18.17 2°54.482 22.5995 2.177198 14.535539 4.815049
2009-07-08 07:14:17 51°18.177 2°54.506 22.6004 2.182363 14.571363 4.815049
2009-07-08 07:14:21 51°18.183 2°54.521 22.5974 2.181537 14.570604 4.815049
2009-07-08 07:14:27 51°18.191 2°54.544 22.5964 2.184326 14.594121 4.780225
2009-07-08 07:14:31 51°18.197 2°54.558 22.6037 2.175648 14.538435 4.815049
2009-07-08 07:14:37 51°18.203 2°54.583 22.5957 2.175648 14.538435 4.815049
2009-07-08 07:14:41 51°18.21 2°54.597 22.6074 2.193832 14.67332 4.815049
2009-07-08 07:14:47 51°18.216 2°54.622 22.5944 2.179264 14.574851 4.815049
2009-07-08 07:14:52 51°18.224 2°54.639 22.6121 2.188253 14.636542 4.780225
2009-07-08 07:14:57 51°18.23 2°54.659 22.5986 2.176475 14.545783 4.815049
2009-07-08 07:15:01 51°18.236 2°54.674 22.5953 2.182054 14.588621 4.780225
2009-07-08 07:15:07 51°18.245 2°54.696 22.6048 2.182054 14.588621 4.780225
2009-07-08 07:15:11 51°18.251 2°54.711 22.6115 2.178541 14.560338 4.815049
2009-07-08 07:15:17 51°18.26 2°54.733 22.612 2.184017 14.606393 4.780225
2009-07-08 07:15:21 51°18.266 2°54.748 22.5904 2.177095 14.561116 4.815049
2009-07-08 07:15:27 51°18.276 2°54.769 22.6022 2.185567 14.628046 4.780225
2009-07-08 07:15:33 51°18.284 2°54.792 22.5996 2.172756 14.535482 4.815049
2009-07-08 07:15:37 51°18.291 2°54.806 22.6005 2.172756 14.535482 4.815049
2009-07-08 07:15:41 51°18.297 2°54.82 22.6169 2.179265 14.583306 4.780225
2009-07-08 07:15:47 51°18.306 2°54.842 22.6047 2.181847 14.601125 4.815049
2009-07-08 07:15:51 51°18.312 2°54.857 22.6125 2.170483 14.50941 4.815049
2009-07-08 07:15:57 51°18.323 2°54.876 22.6199 2.192282 14.663326 4.780225
2009-07-08 07:16:01 51°18.329 2°54.891 22.6162 2.173995 14.527687 4.815049
2009-07-08 07:16:07 51°18.339 2°54.912 22.6137 2.173995 14.527687 4.815049
2009-07-08 07:16:11 51°18.345 2°54.926 22.6172 2.177921 14.547124 4.780225
2009-07-08 07:16:17 51°18.355 2°54.947 22.6187 2.182983 14.57931 4.780225
2009-07-08 07:16:21 51°18.361 2°54.962 22.6206 2.181847 14.56628 4.780225
2009-07-08 07:16:27 51°18.371 2°54.981 22.6162 2.18133 14.569624 4.780225
2009-07-08 07:16:31 51°18.377 2°54.997 22.61 2.18319 14.582663 4.780225
2009-07-08 07:16:37 51°18.388 2°55.015 22.626 2.18319 14.582663 4.780225
2009-07-08 07:16:41 51°18.393 2°55.031 22.6206 2.178541 14.544806 4.780225
2009-07-08 07:16:47 51°18.403 2°55.052 22.6284 2.179677 14.550462 4.745401
2009-07-08 07:16:51 51°18.409 2°55.066 22.6094 2.183913 14.591105 4.780225
2009-07-08 07:16:57 51°18.418 2°55.087 22.6077 2.181124 14.569961 4.780225
2009-07-08 07:17:01 51°18.425 2°55.101 22.6212 2.182673 14.579422 4.780225
2009-07-08 07:17:07 51°18.435 2°55.122 22.6369 2.182673 14.579422 4.780225
2009-07-08 07:17:11 51°18.44 2°55.137 22.6103 2.175751 14.529984 4.780225
2009-07-08 07:17:17 51°18.452 2°55.155 22.6284 2.180814 14.566119 4.780225
2009-07-08 07:17:21 51°18.458 2°55.17 22.625 2.173065 14.509346 4.780225
2009-07-08 07:17:27 51°18.469 2°55.19 22.6303 2.187529 14.618816 4.780225
2009-07-08 07:17:31 51°18.475 2°55.204 22.6244 2.172239 14.510143 4.780225
2009-07-08 07:17:37 51°18.485 2°55.225 22.6175 2.172239 14.510143 4.780225
2009-07-08 07:17:41 51°18.492 2°55.238 22.6342 2.181021 14.578437 4.745401
2009-07-08 07:17:47 51°18.501 2°55.261 22.6143 2.175339 14.545388 4.780225
2009-07-08 07:17:52 51°18.511 2°55.276 22.6216 2.185567 14.62407 4.780225
2009-07-08 07:17:57 51°18.519 2°55.294 22.6411 2.174925 14.548169 4.780225
2009-07-08 07:18:01 51°18.525 2°55.308 22.634 2.182157 14.600214 4.745401
2009-07-08 07:18:07 51°18.535 2°55.329 22.6297 2.182157 14.600214 4.745401
2009-07-08 07:18:13 51°18.545 2°55.349 22.6238 2.170793 14.515091 4.780225
2009-07-08 07:18:17 51°18.551 2°55.364 22.6398 2.177199 14.576134 4.745401
2009-07-08 07:18:21 51°18.557 2°55.379 22.6377 2.181744 14.607785 4.780225
2009-07-08 07:18:27 51°18.567 2°55.399 22.634 2.173066 14.535902 4.745401
2009-07-08 07:18:31 51°18.574 2°55.414 22.6318 2.180711 14.583039 4.745401
2009-07-08 07:18:37 51°18.584 2°55.434 22.6445 2.180711 14.583039 4.745401
2009-07-08 07:18:41 51°18.59 2°55.449 22.6369 2.176578 14.553387 4.780225
2009-07-08 07:18:47 51°18.6 2°55.47 22.6375 2.181847 14.590282 4.745401
2009-07-08 07:18:52 51°18.607 2°55.488 22.6412 2.173479 14.532073 4.745401
2009-07-08 07:18:57 51°18.616 2°55.506 22.636 2.181227 14.586811 4.745401
2009-07-08 07:19:01 51°18.623 2°55.518 22.6385 2.176165 14.549052 4.780225
2009-07-08 07:19:07 51°18.632 2°55.541 22.6367 2.176165 14.549052 4.780225
2009-07-08 07:19:11 51°18.64 2°55.553 22.65 2.180297 14.577644 4.745401
2009-07-08 07:19:17 51°18.648 2°55.575 22.6445 2.173995 14.529265 4.780225
2009-07-08 07:19:21 51°18.656 2°55.588 22.6397 2.172962 14.521199 4.710577
2009-07-08 07:19:27 51°18.666 2°55.608 22.6355 2.18226 14.581945 4.745401
2009-07-08 07:19:32 51°18.674 2°55.626 22.6548 2.181124 14.573388 4.710577
2009-07-08 07:19:37 51°18.682 2°55.643 22.6478 2.181124 14.573388 4.710577
2009-07-08 07:19:41 51°18.688 2°55.658 22.6414 2.173789 14.527231 4.710577
2009-07-08 07:19:47 51°18.698 2°55.678 22.6517 2.182984 14.602549 4.710577
2009-07-08 07:19:53 51°18.708 2°55.701 22.649 2.174202 14.539461 4.745401
2009-07-08 07:19:57 51°18.715 2°55.713 22.658 2.176682 14.554669 4.745401
2009-07-08 07:20:01 51°18.72 2°55.729 22.6398 2.178231 14.560711 4.745401
2009-07-08 07:20:07 51°18.731 2°55.748 22.6653 2.178231 14.560711 4.745401
2009-07-08 07:20:12 51°18.738 2°55.768 22.6557 2.179574 14.573419 4.710577
2009-07-08 07:20:17 51°18.747 2°55.784 22.649 2.179884 14.576474 4.710577
2009-07-08 07:20:21 51°18.752 2°55.799 22.6536 2.176372 14.546872 4.710577
2009-07-08 07:20:27 51°18.762 2°55.82 22.6646 2.174099 14.530808 4.710577
2009-07-08 07:20:31 51°18.768 2°55.835 22.6447 2.178438 14.561429 4.710577
2009-07-08 07:20:37 51°18.779 2°55.854 22.6578 2.178438 14.561429 4.710577
2009-07-08 07:20:41 51°18.785 2°55.869 22.649 2.171619 14.510873 4.710577
2009-07-08 07:20:47 51°18.795 2°55.889 22.6625 2.179058 14.56279 4.710577
2009-07-08 07:20:51 51°18.801 2°55.904 22.6475 2.172446 14.515327 4.710577
2009-07-08 07:20:57 51°18.811 2°55.924 22.6578 2.178541 14.556649 4.710577
2009-07-08 07:21:01 51°18.818 2°55.938 22.6747 2.179161 14.563808 4.710577
2009-07-08 07:21:07 51°18.826 2°55.96 22.6433 2.179161 14.563808 4.710577
2009-07-08 07:21:11 51°18.834 2°55.973 22.6579 2.172859 14.518343 4.710577
2009-07-08 07:21:17 51°18.843 2°55.994 22.6634 2.177508 14.554114 4.675753
2009-07-08 07:21:21 51°18.849 2°56.009 22.6633 2.169656 14.497075 4.710577
2009-07-08 07:21:27 51°18.86 2°56.029 22.6652 2.174615 14.537474 4.675753
2009-07-08 07:21:31 51°18.866 2°56.043 22.6585 2.175442 14.554316 4.710577
2009-07-08 07:21:37 51°18.875 2°56.065 22.6459 2.175442 14.554316 4.710577
2009-07-08 07:21:41 51°18.882 2°56.078 22.6668 2.170689 14.512759 4.745401
2009-07-08 07:21:47 51°18.891 2°56.099 22.6567 2.178231 14.572321 4.710577
2009-07-08 07:21:51 51°18.897 2°56.113 22.6611 2.171929 14.522073 4.710577
2009-07-08 07:21:57 51°18.908 2°56.132 22.6849 2.174512 14.534088 4.710577
2009-07-08 07:22:01 51°18.913 2°56.148 22.6546 2.177198 14.551061 4.675753
2009-07-08 07:22:07 51°18.924 2°56.167 22.6691 2.174512 14.530931 4.675753
2009-07-08 07:22:13 51°18.934 2°56.188 22.6822 2.174512 14.530931 4.675753
2009-07-08 07:22:16 51°18.938 2°56.199 22.67 2.176062 14.54382 4.710577
2009-07-08 07:22:22 51°18.949 2°56.219 22.6638 2.175235 14.538051 4.710577
2009-07-08 07:22:27 51°18.957 2°56.236 22.671 2.176268 14.546645 4.675753
2009-07-08 07:22:32 51°18.965 2°56.254 22.6756 2.171206 14.509696 4.710577
2009-07-08 07:22:37 51°18.974 2°56.27 22.6766 2.171206 14.509696 4.710577
2009-07-08 07:22:42 51°18.981 2°56.288 22.6693 2.178955 14.576813 4.675753
2009-07-08 07:22:47 51°18.99 2°56.305 22.6705 2.171619 14.518495 4.675753
2009-07-08 07:22:52 51°18.998 2°56.323 22.6782 2.172549 14.520549 4.675753
2009-07-08 07:22:57 51°19.006 2°56.34 22.6756 2.177715 14.557994 4.675753
2009-07-08 07:23:02 51°19.014 2°56.359 22.6701 2.167073 14.47692 4.745401
2009-07-08 07:23:07 51°19.023 2°56.375 22.68 2.167073 14.47692 4.745401
2009-07-08 07:23:12 51°19.03 2°56.394 22.6798 2.182467 14.593224 4.675753
2009-07-08 07:23:17 51°19.038 2°56.411 22.6684 2.175339 14.55066 4.675753
2009-07-08 07:23:22 51°19.047 2°56.428 22.6792 2.181744 14.594814 4.675753
2009-07-08 07:23:27 51°19.054 2°56.446 22.6731 2.171619 14.517443 4.675753
2009-07-08 07:23:32 51°19.062 2°56.463 22.6664 2.184533 14.612283 4.675753
2009-07-08 07:23:37 51°19.071 2°56.48 22.6847 2.184533 14.612283 4.675753
2009-07-08 07:23:42 51°19.078 2°56.498 22.667 2.17069 14.514073 4.675753
2009-07-08 07:23:47 51°19.087 2°56.513 22.6975 2.177095 14.559797 4.675753
2009-07-08 07:23:52 51°19.094 2°56.533 22.6708 2.173686 14.534635 4.675753
2009-07-08 07:23:57 51°19.103 2°56.548 22.6825 2.174305 14.538635 4.640929
2009-07-08 07:24:01 51°19.109 2°56.563 22.6785 2.180194 14.585871 4.640929
2009-07-08 07:24:07 51°19.118 2°56.584 22.6783 2.17007 14.514544 4.675753
2009-07-08 07:24:12 51°19.126 2°56.601 22.6859 2.17007 14.514544 4.675753
2009-07-08 07:24:17 51°19.134 2°56.619 22.6929 2.17038 14.514177 4.640929
2009-07-08 07:24:22 51°19.142 2°56.637 22.686 2.175029 14.55288 4.640929
2009-07-08 07:24:27 51°19.15 2°56.654 22.6754 2.171723 14.525302 4.640929
2009-07-08 07:24:32 51°19.159 2°56.67 22.6953 2.174925 14.548433 4.640929
2009-07-08 07:24:37 51°19.166 2°56.689 22.6885 2.174925 14.548433 4.640929
2009-07-08 07:24:42 51°19.175 2°56.705 22.6949 2.175649 14.551342 4.640929
2009-07-08 07:24:47 51°19.182 2°56.724 22.6986 2.17069 14.515388 4.675753
2009-07-08 07:24:52 51°19.19 2°56.741 22.6957 2.16945 14.505021 4.640929
2009-07-08 07:24:57 51°19.198 2°56.759 22.6847 2.178645 14.569796 4.640929
2009-07-08 07:25:01 51°19.204 2°56.773 22.6886 2.167797 14.491378 4.675753
2009-07-08 07:25:07 51°19.213 2°56.795 22.6836 2.167797 14.491378 4.675753
2009-07-08 07:25:12 51°19.222 2°56.811 22.7014 2.181021 14.588738 4.640929
2009-07-08 07:25:17 51°19.228 2°56.831 22.6829 2.16728 14.495223 4.640929
2009-07-08 07:25:21 51°19.236 2°56.843 22.7028 2.178851 14.57553 4.640929
2009-07-08 07:25:27 51°19.244 2°56.866 22.6862 2.166867 14.476723 4.640929
2009-07-08 07:25:32 51°19.253 2°56.882 22.6932 2.175028 14.537595 4.640929
2009-07-08 07:25:37 51°19.259 2°56.901 22.7008 2.175028 14.537595 4.640929
2009-07-08 07:25:42 51°19.268 2°56.918 22.6948 2.173995 14.52795 4.640929
2009-07-08 07:25:47 51°19.275 2°56.936 22.7057 2.170999 14.504512 4.640929
2009-07-08 07:25:52 51°19.283 2°56.953 22.6982 2.176372 14.548189 4.640929
2009-07-08 07:25:57 51°19.291 2°56.972 22.6899 2.16728 14.481573 4.640929
2009-07-08 07:26:02 51°19.3 2°56.988 22.7273 2.181228 14.595801 4.640929
2009-07-08 07:26:07 51°19.306 2°57.008 22.6908 2.181228 14.595801 4.640929
2009-07-08 07:26:12 51°19.315 2°57.024 22.7129 2.166557 14.493094 4.640929
2009-07-08 07:26:17 51°19.323 2°57.041 22.7179 2.179575 14.583721 4.606104
2009-07-08 07:26:21 51°19.329 2°57.056 22.6948 2.173479 14.535233 4.606104
2009-07-08 07:26:27 51°19.34 2°57.075 22.7096 2.171619 14.521389 4.640929
2009-07-08 07:26:32 51°19.347 2°57.093 22.6934 2.176268 14.554551 4.606104
2009-07-08 07:26:37 51°19.356 2°57.109 22.7064 2.176268 14.554551 4.606104
2009-07-08 07:26:42 51°19.363 2°57.128 22.7013 2.166764 14.485148 4.606104
2009-07-08 07:26:47 51°19.372 2°57.144 22.7035 2.173582 14.535197 4.606104
2009-07-08 07:26:52 51°19.38 2°57.163 22.704 2.16821 14.501488 4.606104
2009-07-08 07:26:57 51°19.388 2°57.18 22.7112 2.178438 14.579116 4.606104
2009-07-08 07:27:02 51°19.396 2°57.198 22.7064 2.165317 14.479312 4.640929
2009-07-08 07:27:07 51°19.405 2°57.215 22.6958 2.165317 14.479312 4.640929
2009-07-08 07:27:12 51°19.413 2°57.231 22.7152 2.174512 14.544887 4.606104
2009-07-08 07:27:17 51°19.421 2°57.249 22.6986 2.168417 14.496953 4.640929
2009-07-08 07:27:22 51°19.43 2°57.266 22.7202 2.167797 14.483244 4.57128
2009-07-08 07:27:27 51°19.437 2°57.283 22.7149 2.171516 14.510907 4.606104
2009-07-08 07:27:32 51°19.445 2°57.301 22.7028 2.168003 14.488949 4.606104
2009-07-08 07:27:37 51°19.454 2°57.317 22.712 2.168003 14.488949 4.606104
2009-07-08 07:27:42 51°19.462 2°57.335 22.7195 2.174615 14.541688 4.57128
2009-07-08 07:27:47 51°19.47 2°57.353 22.726 2.170276 14.51316 4.606104
2009-07-08 07:27:52 51°19.478 2°57.37 22.7208 2.171516 14.527742 4.57128
2009-07-08 07:27:57 51°19.485 2°57.388 22.7188 2.169657 14.513367 4.606104
2009-07-08 07:28:02 51°19.494 2°57.404 22.7253 2.172963 14.537256 4.57128
2009-07-08 07:28:07 51°19.501 2°57.423 22.7222 2.172963 14.537256 4.57128
2009-07-08 07:28:12 51°19.51 2°57.44 22.7188 2.169966 14.514579 4.606104
2009-07-08 07:28:17 51°19.518 2°57.457 22.7195 2.175132 14.545724 4.57128
2009-07-08 07:28:22 51°19.525 2°57.476 22.7182 2.165627 14.47423 4.606104
2009-07-08 07:28:27 51°19.534 2°57.492 22.7156 2.171 14.521072 4.57128
2009-07-08 07:28:32 51°19.54 2°57.511 22.7187 2.175236 14.573152 4.57128
2009-07-08 07:28:37 51°19.548 2°57.529 22.728 2.175236 14.573152 4.57128
2009-07-08 07:28:42 51°19.554 2°57.548 22.7251 2.168314 14.523835 4.57128
2009-07-08 07:28:47 51°19.56 2°57.567 22.7359 2.169967 14.528539 4.57128
2009-07-08 07:28:52 51°19.566 2°57.587 22.7271 2.167074 14.505021 4.57128
2009-07-08 07:28:57 51°19.573 2°57.606 22.7271 2.172446 14.542182 4.57128
2009-07-08 07:29:01 51°19.578 2°57.621 22.7289 2.162218 14.464549 4.57128
2009-07-08 07:29:07 51°19.585 2°57.645 22.7328 2.162218 14.464549 4.57128
2009-07-08 07:29:12 51°19.589 2°57.666 22.7288 2.176372 14.565863 4.57128
2009-07-08 07:29:17 51°19.596 2°57.685 22.7128 2.165834 14.48571 4.57128
2009-07-08 07:29:21 51°19.601 2°57.7 22.7382 2.173066 14.534058 4.57128
2009-07-08 07:29:27 51°19.606 2°57.724 22.7226 2.17007 14.513492 4.57128
2009-07-08 07:29:32 51°19.613 2°57.743 22.7404 2.172136 14.53069 4.57128
2009-07-08 07:29:37 51°19.618 2°57.764 22.7151 2.162528 14.459994 4.606104
2009-07-08 07:29:42 51°19.624 2°57.783 22.7293 2.162528 14.459994 4.606104
2009-07-08 07:29:47 51°19.629 2°57.803 22.735 2.176785 14.56862 4.536456
2009-07-08 07:29:52 51°19.634 2°57.823 22.7324 2.172033 14.533624 4.57128
2009-07-08 07:29:57 51°19.641 2°57.843 22.742 2.17131 14.525969 4.57128
2009-07-08 07:30:02 51°19.645 2°57.863 22.7223 2.173582 14.539676 4.536456
2009-07-08 07:30:07 51°19.651 2°57.883 22.7546 2.173582 14.539676 4.536456
2009-07-08 07:30:12 51°19.656 2°57.903 22.7334 2.176268 14.558508 4.57128
2009-07-08 07:30:17 51°19.662 2°57.922 22.7329 2.167694 14.497978 4.57128
2009-07-08 07:30:22 51°19.668 2°57.942 22.7466 2.170276 14.514475 4.57128
2009-07-08 07:30:27 51°19.673 2°57.962 22.7268 2.169966 14.511948 4.536456
2009-07-08 07:30:32 51°19.68 2°57.981 22.7368 2.174512 14.546732 4.536456
2009-07-08 07:30:37 51°19.685 2°58.001 22.7513 2.174512 14.546732 4.536456
2009-07-08 07:30:41 51°19.689 2°58.017 22.7351 2.170587 14.536501 4.536456
2009-07-08 07:30:47 51°19.696 2°58.041 22.7492 2.167384 14.51229 4.536456
2009-07-08 07:30:52 51°19.702 2°58.06 22.7531 2.174719 14.569108 4.536456
2009-07-08 07:30:57 51°19.706 2°58.08 22.7311 2.160565 14.459556 4.57128
2009-07-08 07:31:01 51°19.712 2°58.095 22.7501 2.173893 14.561474 4.536456
2009-07-08 07:31:07 51°19.717 2°58.12 22.7517 2.174409 14.563402 4.536456
2009-07-08 07:31:12 51°19.723 2°58.139 22.7387 2.174409 14.563402 4.536456
2009-07-08 07:31:17 51°19.729 2°58.158 22.7455 2.165834 14.497012 4.57128
2009-07-08 07:31:22 51°19.734 2°58.177 22.7643 2.170896 14.5327 4.536456
2009-07-08 07:31:27 51°19.74 2°58.197 22.7462 2.167384 14.509919 4.501632
2009-07-08 07:31:32 51°19.745 2°58.216 22.7457 2.167901 14.515277 4.536456
2009-07-08 07:31:37 51°19.751 2°58.236 22.7472 2.167901 14.515277 4.536456
2009-07-08 07:31:42 51°19.756 2°58.255 22.7568 2.171413 14.546507 4.501632
2009-07-08 07:31:47 51°19.761 2°58.275 22.7526 2.166971 14.512693 4.536456
2009-07-08 07:31:52 51°19.767 2°58.294 22.7509 2.175442 14.576781 4.501632
2009-07-08 07:31:57 51°19.772 2°58.315 22.7369 2.166041 14.509846 4.536456
2009-07-08 07:32:02 51°19.778 2°58.334 22.7474 2.172033 14.552892 4.501632
2009-07-08 07:32:07 51°19.782 2°58.354 22.761 2.172033 14.552892 4.501632
2009-07-08 07:32:12 51°19.788 2°58.373 22.7457 2.175443 14.57837 4.501632
2009-07-08 07:32:17 51°19.793 2°58.393 22.7455 2.163768 14.487695 4.536456
2009-07-08 07:32:21 51°19.799 2°58.407 22.7685 2.172756 14.553954 4.501632
2009-07-08 07:32:27 51°19.803 2°58.432 22.7514 2.175029 14.57508 4.501632
2009-07-08 07:32:32 51°19.81 2°58.45 22.7552 2.161909 14.473574 4.536456
2009-07-08 07:32:37 51°19.815 2°58.471 22.7407 2.161909 14.473574 4.536456
2009-07-08 07:32:42 51°19.822 2°58.489 22.7648 2.180092 14.608153 4.536456
2009-07-08 07:32:47 51°19.825 2°58.51 22.7482 2.167074 14.508707 4.536456
2009-07-08 07:32:52 51°19.832 2°58.528 22.7773 2.16945 14.508965 4.501632
2009-07-08 07:32:57 51°19.836 2°58.547 22.7668 2.16759 14.4988 4.536456
2009-07-08 07:33:01 51°19.84 2°58.563 22.7658 2.172653 14.536045 4.536456
2009-07-08 07:33:07 51°19.848 2°58.585 22.7708 2.171413 14.529885 4.501632
2009-07-08 07:33:12 51°19.853 2°58.605 22.7603 2.171413 14.529885 4.501632
2009-07-08 07:33:17 51°19.859 2°58.624 22.7609 2.159636 14.44647 4.536456
2009-07-08 07:33:22 51°19.865 2°58.642 22.7818 2.173479 14.547887 4.501632
2009-07-08 07:33:27 51°19.87 2°58.662 22.7582 2.170896 14.529536 4.501632
2009-07-08 07:33:32 51°19.875 2°58.681 22.7449 2.161598 14.460545 4.501632
2009-07-08 07:33:37 51°19.882 2°58.699 22.7715 2.161598 14.460545 4.501632
2009-07-08 07:33:42 51°19.885 2°58.72 22.7878 2.17162 14.540889 4.501632
2009-07-08 07:33:47 51°19.891 2°58.739 22.7662 2.172136 14.548363 4.501632
2009-07-08 07:33:52 51°19.897 2°58.758 22.7699 2.170483 14.535745 4.501632
2009-07-08 07:33:57 51°19.902 2°58.777 22.7727 2.175339 14.569939 4.466808
2009-07-08 07:34:01 51°19.906 2°58.792 22.777 2.168314 14.519879 4.466808
2009-07-08 07:34:07 51°19.912 2°58.816 22.7598 2.168314 14.519879 4.466808
2009-07-08 07:34:11 51°19.917 2°58.831 22.7857 2.166351 14.50342 4.501632
2009-07-08 07:34:17 51°19.924 2°58.854 22.7727 2.173789 14.566008 4.466808
2009-07-08 07:34:22 51°19.929 2°58.874 22.7707 2.168417 14.529076 4.501632
2009-07-08 07:34:27 51°19.935 2°58.893 22.7784 2.163562 14.49724 4.501632
2009-07-08 07:34:32 51°19.941 2°58.912 22.7812 2.174926 14.587044 4.501632
2009-07-08 07:34:37 51°19.946 2°58.932 22.7762 2.165215 14.513819 4.501632
2009-07-08 07:34:42 51°19.953 2°58.95 22.7725 2.165215 14.513819 4.501632
2009-07-08 07:34:47 51°19.958 2°58.969 22.7717 2.172963 14.570017 4.501632
2009-07-08 07:34:52 51°19.963 2°58.989 22.7649 2.165008 14.507823 4.501632
2009-07-08 07:34:57 51°19.97 2°59.007 22.7853 2.166454 14.515505 4.501632
2009-07-08 07:35:02 51°19.975 2°59.027 22.7791 2.168934 14.532064 4.466808
2009-07-08 07:35:07 51°19.981 2°59.045 22.7784 2.168934 14.532064 4.466808
2009-07-08 07:35:12 51°19.986 2°59.065 22.7676 2.166661 14.515699 4.466808
2009-07-08 07:35:17 51°19.992 2°59.084 22.7919 2.159533 14.463295 4.466808
2009-07-08 07:35:22 51°19.997 2°59.103 22.7964 2.167591 14.525932 4.466808
2009-07-08 07:35:27 51°20.003 2°59.123 22.7732 2.163149 14.495797 4.501632
2009-07-08 07:35:32 51°20.009 2°59.141 22.7842 2.167901 14.532954 4.466808
2009-07-08 07:35:37 51°20.014 2°59.161 22.7854 2.167901 14.532954 4.466808
2009-07-08 07:35:41 51°20.019 2°59.176 22.7855 2.160669 14.475813 4.501632
2009-07-08 07:35:47 51°20.026 2°59.199 22.7809 2.168831 14.532628 4.466808
2009-07-08 07:35:52 51°20.031 2°59.218 22.7658 2.164491 14.494561 4.466808
2009-07-08 07:35:57 51°20.038 2°59.236 22.7906 2.16914 14.526978 4.466808
2009-07-08 07:36:02 51°20.042 2°59.257 22.777 2.167281 14.510481 4.466808
2009-07-08 07:36:07 51°20.048 2°59.276 22.7986 2.167281 14.510481 4.466808
2009-07-08 07:36:12 51°20.053 2°59.295 22.7982 2.173479 14.554752 4.466808
2009-07-08 07:36:17 51°20.059 2°59.313 22.7897 2.168314 14.517244 4.466808
2009-07-08 07:36:21 51°20.064 2°59.328 22.7802 2.169347 14.524798 4.431984
2009-07-08 07:36:27 51°20.071 2°59.352 22.7903 2.16945 14.527926 4.466808
2009-07-08 07:36:32 51°20.076 2°59.371 22.7966 2.167591 14.514855 4.431984
2009-07-08 07:36:37 51°20.081 2°59.389 22.7826 2.168934 14.525467 4.466808
2009-07-08 07:36:42 51°20.088 2°59.408 22.7981 2.168934 14.525467 4.466808
2009-07-08 07:36:47 51°20.093 2°59.427 22.79 2.167281 14.51496 4.431984
2009-07-08 07:36:52 51°20.098 2°59.447 22.7885 2.162632 14.483068 4.466808
2009-07-08 07:36:57 51°20.104 2°59.465 22.8065 2.165318 14.5064 4.431984
2009-07-08 07:37:02 51°20.11 2°59.484 22.814 2.170174 14.552503 4.466808
2009-07-08 07:37:07 51°20.115 2°59.504 22.778 2.170174 14.552503 4.466808
2009-07-08 07:37:12 51°20.122 2°59.522 22.794 2.165215 14.515139 4.466808
2009-07-08 07:37:17 51°20.127 2°59.541 22.8113 2.166351 14.523194 4.431984
2009-07-08 07:37:22 51°20.133 2°59.56 22.799 2.17379 14.576865 4.431984
2009-07-08 07:37:27 51°20.138 2°59.579 22.8044 2.158913 14.466909 4.466808
2009-07-08 07:37:32 51°20.145 2°59.596 22.7991 2.167074 14.524791 4.431984
2009-07-08 07:37:37 51°20.149 2°59.616 22.802 2.167074 14.524791 4.431984
2009-07-08 07:37:42 51°20.156 2°59.635 22.7947 2.166558 14.518635 4.466808
2009-07-08 07:37:47 51°20.16 2°59.654 22.7954 2.164801 14.505784 4.431984
2009-07-08 07:37:52 51°20.166 2°59.672 22.801 2.173893 14.567293 4.501632
2009-07-08 07:37:57 51°20.171 2°59.692 22.8144 2.167901 14.520285 4.431984
2009-07-08 07:38:01 51°20.175 2°59.707 22.7957 2.168934 14.522303 4.431984
2009-07-08 07:38:07 51°20.183 2°59.729 22.8125 2.165111 14.493568 4.431984
2009-07-08 07:38:12 51°20.187 2°59.749 22.8077 2.165111 14.493568 4.431984
2009-07-08 07:38:17 51°20.194 2°59.767 22.8123 2.171413 14.541754 4.431984
2009-07-08 07:38:22 51°20.198 2°59.787 22.8032 2.164181 14.488612 4.431984
2009-07-08 07:38:27 51°20.205 2°59.805 22.8118 2.168624 14.520301 4.39716
2009-07-08 07:38:32 51°20.21 2°59.824 22.8013 2.164595 14.491633 4.431984
2009-07-08 07:38:37 51°20.216 2°59.843 22.8095 2.164595 14.491633 4.431984
2009-07-08 07:38:42 51°20.221 2°59.862 22.8248 2.172446 14.553272 4.431984
2009-07-08 07:38:47 51°20.226 2°59.882 22.7982 2.160876 14.471014 4.431984
2009-07-08 07:38:52 51°20.233 2°59.9 22.8249 2.164905 14.500743 4.39716
2009-07-08 07:38:57 51°20.238 2°59.919 22.8068 2.165525 14.511076 4.431984
2009-07-08 07:39:02 51°20.244 2°59.939 22.8165 2.166661 14.517809 4.431984
2009-07-08 07:39:07 51°20.25 2°59.957 22.8305 2.166661 14.517809 4.431984
2009-07-08 07:39:12 51°20.254 2°59.977 22.8059 2.163872 14.497663 4.431984
2009-07-08 07:39:17 51°20.26 2°59.995 22.8325 2.163562 14.492763 4.431984
2009-07-08 07:39:22 51°20.265 3°0.014 22.8242 2.171723 14.553003 4.39716
2009-07-08 07:39:27 51°20.27 3°0.033 22.8091 2.159739 14.464017 4.431984
2009-07-08 07:39:32 51°20.277 3°0.051 22.8168 2.164801 14.499987 4.39716
2009-07-08 07:39:37 51°20.281 3°0.071 22.8428 2.164801 14.499987 4.39716
2009-07-08 07:39:41 51°20.285 3°0.086 22.8241 2.17038 14.544232 4.39716
2009-07-08 07:39:47 51°20.292 3°0.109 22.8208 2.165525 14.510285 4.431984
2009-07-08 07:39:52 51°20.297 3°0.127 22.8338 2.16976 14.541809 4.39716
2009-07-08 07:39:57 51°20.301 3°0.147 22.8174 2.158396 14.454459 4.466808
2009-07-08 07:40:02 51°20.309 3°0.165 22.8361 2.166868 14.512465 4.39716
2009-07-08 07:40:07 51°20.313 3°0.184 22.8313 2.163148 14.488424 4.431984
2009-07-08 07:40:12 51°20.318 3°0.203 22.8191 2.163148 14.488424 4.431984
2009-07-08 07:40:17 51°20.324 3°0.221 22.8422 2.166558 14.511779 4.39716
2009-07-08 07:40:21 51°20.328 3°0.236 22.8292 2.17007 14.535362 4.39716
2009-07-08 07:40:27 51°20.333 3°0.26 22.822 2.156433 14.435387 4.466808
2009-07-08 07:40:32 51°20.341 3°0.277 22.8467 2.178955 14.602488 4.431984
2009-07-08 07:40:37 51°20.344 3°0.297 22.8247 2.178955 14.602488 4.431984
2009-07-08 07:40:42 51°20.351 3°0.315 22.8203 2.163562 14.49092 4.39716
2009-07-08 07:40:47 51°20.356 3°0.333 22.8594 2.166248 14.512148 4.39716
2009-07-08 07:40:52 51°20.361 3°0.352 22.8336 2.164801 14.498144 4.431984
2009-07-08 07:40:57 51°20.367 3°0.37 22.8224 2.162115 14.479816 4.39716
2009-07-08 07:41:02 51°20.373 3°0.389 22.8294 2.171827 14.55138 4.39716
2009-07-08 07:41:07 51°20.378 3°0.408 22.8307 2.171827 14.55138 4.39716
2009-07-08 07:41:12 51°20.384 3°0.427 22.8238 2.161392 14.477157 4.39716
2009-07-08 07:41:17 51°20.39 3°0.445 22.8504 2.16945 14.533731 4.39716
2009-07-08 07:41:22 51°20.394 3°0.465 22.8229 2.161082 14.469634 4.431984
2009-07-08 07:41:27 51°20.401 3°0.482 22.843 2.171517 14.54515 4.39716
2009-07-08 07:41:32 51°20.405 3°0.502 22.836 2.160772 14.466842 4.39716
2009-07-08 07:41:37 51°20.411 3°0.521 22.8252 2.1741 14.5741 4.39716
2009-07-08 07:41:42 51°20.417 3°0.538 22.8468 2.1741 14.5741 4.39716
2009-07-08 07:41:47 51°20.421 3°0.558 22.8315 2.167694 14.533291 4.431984
2009-07-08 07:41:52 51°20.426 3°0.577 22.8348 2.159533 14.472497 4.431984
2009-07-08 07:41:57 51°20.432 3°0.595 22.8349 2.17162 14.56389 4.39716
2009-07-08 07:42:02 51°20.436 3°0.615 22.8319 2.165112 14.514382 4.39716
2009-07-08 07:42:07 51°20.443 3°0.633 22.8508 2.165112 14.514382 4.39716
2009-07-08 07:42:12 51°20.447 3°0.652 22.8463 2.164595 14.511392 4.39716
2009-07-08 07:42:17 51°20.454 3°0.67 22.8499 2.163872 14.500562 4.39716
2009-07-08 07:42:22 51°20.459 3°0.689 22.851 2.168624 14.537191 4.39716
2009-07-08 07:42:27 51°20.463 3°0.708 22.823 2.17038 14.555605 4.39716
2009-07-08 07:42:32 51°20.469 3°0.728 22.8427 2.172033 14.563474 4.362336
2009-07-08 07:42:37 51°20.474 3°0.745 22.8575 2.172033 14.563474 4.362336
2009-07-08 07:42:42 51°20.477 3°0.766 22.8345 2.160463 14.479038 4.39716
2009-07-08 07:42:47 51°20.485 3°0.782 22.8521 2.172033 14.565857 4.39716
2009-07-08 07:42:52 51°20.488 3°0.802 22.8585 2.159326 14.474143 4.39716
2009-07-08 07:42:57 51°20.495 3°0.819 22.8594 2.166041 14.524358 4.39716
2009-07-08 07:43:01 51°20.499 3°0.835 22.8433 2.15726 14.457443 4.39716
2009-07-08 07:43:07 51°20.505 3°0.857 22.8632 2.15726 14.457443 4.39716
2009-07-08 07:43:12 51°20.51 3°0.877 22.8421 2.171414 14.559729 4.39716
2009-07-08 07:43:17 51°20.515 3°0.895 22.8456 2.162012 14.488798 4.39716
2009-07-08 07:43:22 51°20.521 3°0.913 22.8845 2.171413 14.557347 4.362336
2009-07-08 07:43:27 51°20.525 3°0.932 22.8399 2.162529 14.493105 4.39716
2009-07-08 07:43:32 51°20.531 3°0.951 22.8413 2.165525 14.512922 4.362336
2009-07-08 07:43:37 51°20.537 3°0.969 22.873 2.165008 14.508614 4.362336
2009-07-08 07:43:42 51°20.541 3°0.989 22.8455 2.165008 14.508614 4.362336
2009-07-08 07:43:47 51°20.548 3°1.006 22.8634 2.169347 14.540106 4.362336
2009-07-08 07:43:52 51°20.552 3°1.025 22.8735 2.163045 14.495304 4.362336
2009-07-08 07:43:58 51°20.559 3°1.047 22.8593 2.170794 14.551486 4.362336
2009-07-08 07:44:02 51°20.563 3°1.062 22.8562 2.158706 14.461191 4.39716
2009-07-08 07:44:07 51°20.569 3°1.081 22.8487 2.158706 14.461191 4.39716
2009-07-08 07:44:12 51°20.574 3°1.1 22.8757 2.162012 14.486165 4.362336
2009-07-08 07:44:17 51°20.579 3°1.119 22.8705 2.170484 14.549218 4.362336
2009-07-08 07:44:22 51°20.584 3°1.138 22.8656 2.15726 14.452713 4.39716
2009-07-08 07:44:26 51°20.59 3°1.152 22.8702 2.171103 14.552697 4.362336
2009-07-08 07:44:32 51°20.595 3°1.175 22.8886 2.159326 14.464937 4.362336
2009-07-08 07:44:37 51°20.601 3°1.194 22.8578 2.159326 14.464937 4.362336
2009-07-08 07:44:42 51°20.605 3°1.212 22.8696 2.168004 14.533446 4.362336
2009-07-08 07:44:47 51°20.611 3°1.231 22.8645 2.160462 14.476143 4.39716
2009-07-08 07:44:51 51°20.615 3°1.246 22.8811 2.174616 14.578412 4.327512
2009-07-08 07:44:57 51°20.621 3°1.269 22.8745 2.160359 14.476703 4.362336
2009-07-08 07:45:02 51°20.627 3°1.287 22.8694 2.167798 14.532462 4.362336
2009-07-08 07:45:07 51°20.632 3°1.306 22.877 2.166351 14.525042 4.362336
2009-07-08 07:45:12 51°20.637 3°1.325 22.863 2.166351 14.525042 4.362336
2009-07-08 07:45:17 51°20.644 3°1.343 22.8721 2.162529 14.497058 4.362336
2009-07-08 07:45:22 51°20.649 3°1.362 22.8875 2.163252 14.501034 4.327512
2009-07-08 07:45:27 51°20.654 3°1.381 22.868 2.168004 14.538468 4.362336
2009-07-08 07:45:32 51°20.66 3°1.399 22.8798 2.153231 14.427438 4.39716
2009-07-08 07:45:37 51°20.666 3°1.418 22.8871 2.153231 14.427438 4.39716
2009-07-08 07:45:42 51°20.67 3°1.437 22.8709 2.177199 14.606349 4.362336
2009-07-08 07:45:47 51°20.676 3°1.456 22.8725 2.163459 14.506766 4.362336
2009-07-08 07:45:52 51°20.682 3°1.474 22.8785 2.166661 14.528633 4.327512
2009-07-08 07:45:57 51°20.686 3°1.494 22.8848 2.167384 14.528116 4.39716
2009-07-08 07:46:02 51°20.692 3°1.512 22.8977 2.163562 14.498294 4.362336
2009-07-08 07:46:07 51°20.697 3°1.531 22.8679 2.163562 14.498294 4.362336
2009-07-08 07:46:12 51°20.703 3°1.55 22.8739 2.164078 14.502337 4.327512
2009-07-08 07:46:17 51°20.708 3°1.569 22.8863 2.1585 14.459943 4.362336
2009-07-08 07:46:22 51°20.714 3°1.587 22.894 2.171413 14.556553 4.327512
2009-07-08 07:46:27 51°20.718 3°1.606 22.872 2.155917 14.442364 4.39716
2009-07-08 07:46:32 51°20.725 3°1.623 22.8993 2.167694 14.530649 4.362336
2009-07-08 07:46:37 51°20.728 3°1.641 22.8986 2.167694 14.530649 4.362336
2009-07-08 07:46:42 51°20.734 3°1.659 22.897 2.162219 14.4911 4.327512
2009-07-08 07:46:47 51°20.739 3°1.676 22.8925 2.167281 14.529208 4.327512
2009-07-08 07:46:52 51°20.745 3°1.693 22.8763 2.167074 14.52796 4.327512
2009-07-08 07:46:57 51°20.749 3°1.711 22.8985 2.162116 14.493506 4.362336
2009-07-08 07:47:02 51°20.755 3°1.727 22.9036 2.162322 14.498709 4.362336
2009-07-08 07:47:07 51°20.76 3°1.745 22.8961 2.167798 14.541186 4.327512
2009-07-08 07:47:11 51°20.765 3°1.758 22.9066 2.167798 14.541186 4.327512
2009-07-08 07:47:17 51°20.77 3°1.78 22.8875 2.160153 14.486515 4.362336
2009-07-08 07:47:22 51°20.776 3°1.796 22.8964 2.174616 14.594328 4.327512
2009-07-08 07:47:27 51°20.781 3°1.813 22.9044 2.159326 14.483362 4.327512
2009-07-08 07:47:31 51°20.785 3°1.827 22.8922 2.169657 14.556927 4.327512
2009-07-08 07:47:37 51°20.791 3°1.849 22.9036 2.169657 14.556927 4.327512
2009-07-08 07:47:42 51°20.798 3°1.866 22.8976 2.165835 14.524166 4.362336
2009-07-08 07:47:47 51°20.802 3°1.885 22.8987 2.169037 14.544446 4.327512
2009-07-08 07:47:51 51°20.805 3°1.9 22.888 2.166248 14.52323 4.327512
2009-07-08 07:47:57 51°20.813 3°1.921 22.8918 2.15881 14.470362 4.362336
2009-07-08 07:48:02 51°20.818 3°1.94 22.8938 2.165525 14.528503 4.327512
2009-07-08 07:48:07 51°20.823 3°1.959 22.8972 2.165525 14.528503 4.327512
2009-07-08 07:48:12 51°20.828 3°1.977 22.8868 2.165215 14.536286 4.327512
2009-07-08 07:48:17 51°20.833 3°1.995 22.9031 2.158707 14.485413 4.327512
2009-07-08 07:48:22 51°20.838 3°2.013 22.9147 2.170484 14.567754 4.327512
2009-07-08 07:48:27 51°20.842 3°2.032 22.9108 2.16036 14.494885 4.327512
2009-07-08 07:48:32 51°20.849 3°2.049 22.9103 2.163149 14.515851 4.327512
2009-07-08 07:48:37 51°20.853 3°2.067 22.9179 2.163149 14.515851 4.327512
2009-07-08 07:48:42 51°20.859 3°2.084 22.9112 2.169348 14.560485 4.327512
2009-07-08 07:48:47 51°20.863 3°2.102 22.8991 2.160669 14.495836 4.327512
2009-07-08 07:48:52 51°20.869 3°2.119 22.9129 2.163252 14.51608 4.327512
2009-07-08 07:48:57 51°20.874 3°2.137 22.9135 2.164595 14.527244 4.327512
2009-07-08 07:49:02 51°20.88 3°2.154 22.9174 2.161083 14.500976 4.327512
2009-07-08 07:49:07 51°20.885 3°2.172 22.914 2.161083 14.500976 4.327512
2009-07-08 07:49:12 51°20.89 3°2.189 22.9279 2.164595 14.525657 4.327512
2009-07-08 07:49:17 51°20.895 3°2.207 22.9024 2.167281 14.54905 4.327512
2009-07-08 07:49:22 51°20.9 3°2.225 22.9199 2.159533 14.495956 4.327512
2009-07-08 07:49:27 51°20.905 3°2.242 22.9149 2.163356 14.523183 4.292688
2009-07-08 07:49:31 51°20.909 3°2.256 22.9196 2.166248 14.543065 4.327512
2009-07-08 07:49:37 51°20.915 3°2.277 22.9028 2.166248 14.543065 4.327512
2009-07-08 07:49:42 51°20.92 3°2.295 22.9183 2.15788 14.481467 4.327512
2009-07-08 07:49:47 51°20.925 3°2.312 22.932 2.165835 14.538182 4.327512
2009-07-08 07:49:52 51°20.929 3°2.331 22.9166 2.15726 14.475607 4.327512
2009-07-08 07:49:57 51°20.935 3°2.347 22.9304 2.157054 14.473039 4.292688
2009-07-08 07:50:02 51°20.94 3°2.365 22.928 2.164905 14.530044 4.292688
2009-07-08 07:50:06 51°20.944 3°2.379 22.9224 2.164905 14.530044 4.292688
2009-07-08 07:50:12 51°20.95 3°2.4 22.93 2.156744 14.470241 4.327512
2009-07-08 07:50:17 51°20.956 3°2.417 22.9295 2.172964 14.592305 4.327512
2009-07-08 07:50:22 51°20.96 3°2.435 22.9169 2.1585 14.485745 4.327512
2009-07-08 07:50:26 51°20.966 3°2.448 22.9341 2.164285 14.527617 4.327512
2009-07-08 07:50:32 51°20.971 3°2.47 22.9123 2.162529 14.513952 4.327512
2009-07-08 07:50:38 51°20.978 3°2.49 22.9348 2.161496 14.505588 4.327512
2009-07-08 07:50:42 51°20.981 3°2.504 22.9285 2.161496 14.505588 4.327512
2009-07-08 07:50:46 51°20.986 3°2.518 22.9364 2.163769 14.522509 4.327512
2009-07-08 07:50:52 51°20.992 3°2.539 22.9232 2.164595 14.531477 4.327512
2009-07-08 07:50:57 51°20.997 3°2.557 22.9288 2.159017 14.488475 4.327512
2009-07-08 07:51:02 51°21.002 3°2.574 22.9379 2.168831 14.561206 4.292688
2009-07-08 07:51:07 51°21.007 3°2.592 22.9313 2.168831 14.561206 4.292688
2009-07-08 07:51:12 51°21.012 3°2.608 22.9341 2.15881 14.485378 4.327512
2009-07-08 07:51:17 51°21.017 3°2.626 22.9334 2.165732 14.53716 4.327512
2009-07-08 07:51:22 51°21.022 3°2.644 22.906 2.168831 14.556964 4.327512
2009-07-08 07:51:27 51°21.027 3°2.661 22.9316 2.170071 14.5695 4.292688
2009-07-08 07:51:32 51°21.031 3°2.678 22.9218 2.159327 14.494706 4.292688
2009-07-08 07:51:37 51°21.036 3°2.697 22.931 2.159327 14.494706 4.292688
2009-07-08 07:51:42 51°21.042 3°2.713 22.9434 2.168005 14.552761 4.292688
2009-07-08 07:51:47 51°21.045 3°2.732 22.9294 2.158913 14.485608 4.292688
2009-07-08 07:51:52 51°21.051 3°2.748 22.9415 2.158293 14.479221 4.292688
2009-07-08 07:51:57 51°21.056 3°2.765 22.9416 2.166765 14.538644 4.292688
2009-07-08 07:52:02 51°21.06 3°2.783 22.9275 2.15819 14.477937 4.327512
2009-07-08 07:52:07 51°21.066 3°2.799 22.9242 2.15819 14.477937 4.327512
2009-07-08 07:52:11 51°21.07 3°2.814 22.9665 2.160153 14.494427 4.292688
2009-07-08 07:52:17 51°21.075 3°2.834 22.9369 2.165112 14.529971 4.327512
2009-07-08 07:52:22 51°21.08 3°2.851 22.9436 2.156124 14.4657 4.327512
2009-07-08 07:52:27 51°21.085 3°2.868 22.9485 2.160463 14.49617 4.292688
2009-07-08 07:52:31 51°21.089 3°2.882 22.9534 2.166455 14.54723 4.292688
2009-07-08 07:52:37 51°21.094 3°2.904 22.944 2.155401 14.462246 4.327512
2009-07-08 07:52:42 51°21.1 3°2.92 22.9587 2.155401 14.462246 4.327512
2009-07-08 07:52:47 51°21.104 3°2.938 22.9529 2.175443 14.611023 4.292688
2009-07-08 07:52:52 51°21.108 3°2.956 22.9343 2.154988 14.460798 4.327512
2009-07-08 07:52:57 51°21.114 3°2.971 22.9662 2.168728 14.560449 4.292688
2009-07-08 07:53:02 51°21.118 3°2.99 22.942 2.15943 14.492031 4.327512
2009-07-08 07:53:07 51°21.123 3°3.006 22.9433 2.15943 14.492031 4.327512
2009-07-08 07:53:12 51°21.128 3°3.024 22.9474 2.159327 14.489427 4.292688
2009-07-08 07:53:17 51°21.132 3°3.041 22.9532 2.163769 14.520393 4.292688
2009-07-08 07:53:22 51°21.136 3°3.059 22.9419 2.155814 14.46185 4.327512
2009-07-08 07:53:27 51°21.142 3°3.076 22.9614 2.163252 14.518459 4.292688
2009-07-08 07:53:32 51°21.145 3°3.094 22.9623 2.163872 14.525382 4.292688
2009-07-08 07:53:37 51°21.151 3°3.111 22.9526 2.163872 14.525382 4.292688
2009-07-08 07:53:42 51°21.155 3°3.129 22.9412 2.15943 14.494671 4.292688
2009-07-08 07:53:47 51°21.16 3°3.147 22.9657 2.160566 14.503529 4.292688
2009-07-08 07:53:52 51°21.164 3°3.165 22.9494 2.167385 14.555374 4.292688
2009-07-08 07:53:57 51°21.169 3°3.182 22.9629 2.153025 14.451682 4.292688
2009-07-08 07:54:02 51°21.174 3°3.2 22.9669 2.167282 14.560718 4.292688
2009-07-08 07:54:07 51°21.178 3°3.218 22.9654 2.151579 14.442661 4.327512
2009-07-08 07:54:12 51°21.183 3°3.236 22.9585 2.151579 14.442661 4.327512
2009-07-08 07:54:17 51°21.188 3°3.252 22.9811 2.17441 14.608767 4.292688
2009-07-08 07:54:22 51°21.191 3°3.271 22.9623 2.15881 14.490128 4.292688
2009-07-08 07:54:26 51°21.196 3°3.284 22.972 2.165112 14.532617 4.292688
2009-07-08 07:54:32 51°21.201 3°3.305 22.9715 2.157674 14.481008 4.292688
2009-07-08 07:54:37 51°21.206 3°3.322 22.9634 2.162529 14.516066 4.292688
2009-07-08 07:54:42 51°21.211 3°3.339 22.9796 2.162529 14.516066 4.292688
2009-07-08 07:54:46 51°21.214 3°3.353 22.9546 2.161909 14.510994 4.292688
2009-07-08 07:54:52 51°21.22 3°3.373 22.9618 2.156744 14.472876 4.292688
2009-07-08 07:54:57 51°21.225 3°3.39 22.961 2.166145 14.541249 4.292688
2009-07-08 07:55:02 51°21.229 3°3.407 22.9713 2.154161 14.453164 4.327512
2009-07-08 07:55:06 51°21.232 3°3.42 22.9681 2.154161 14.453164 4.327512
2009-07-08 07:55:12 51°21.238 3°3.438 22.9745 2.163459 14.519973 4.292688
2009-07-08 07:55:17 51°21.241 3°3.453 22.9639 2.157983 14.480114 4.292688
2009-07-08 07:55:22 51°21.246 3°3.468 22.961 2.165215 14.534168 4.257864
2009-07-08 07:55:26 51°21.248 3°3.479 22.9639 2.159843 14.493476 4.292688
2009-07-08 07:55:32 51°21.253 3°3.496 22.9792 2.163976 14.52561 4.292688
2009-07-08 07:55:37 51°21.256 3°3.51 22.9677 2.163976 14.52561 4.292688
2009-07-08 07:55:42 51°21.261 3°3.524 22.9784 2.16098 14.506029 4.292688
2009-07-08 07:55:46 51°21.263 3°3.535 22.967 2.163252 14.522161 4.292688
2009-07-08 07:55:52 51°21.267 3°3.552 22.9787 2.15726 14.479562 4.292688
2009-07-08 07:55:57 51°21.27 3°3.565 22.9667 2.164595 14.534919 4.292688
2009-07-08 07:56:02 51°21.273 3°3.579 22.9908 2.163252 14.521632 4.292688
2009-07-08 07:56:07 51°21.277 3°3.591 22.9763 2.160256 14.496768 4.292688
2009-07-08 07:56:12 51°21.281 3°3.605 22.964 2.160256 14.496768 4.292688
2009-07-08 07:56:17 51°21.284 3°3.618 22.989 2.157777 14.480182 4.292688
2009-07-08 07:56:22 51°21.287 3°3.631 22.9825 2.169141 14.569051 4.292688
2009-07-08 07:56:27 51°21.29 3°3.644 22.99 2.160773 14.509008 4.292688
2009-07-08 07:56:32 51°21.294 3°3.657 22.9824 2.15757 14.487376 4.292688
2009-07-08 07:56:37 51°21.297 3°3.669 22.974 2.163666 14.533397 4.292688
2009-07-08 07:56:42 51°21.301 3°3.682 22.9748 2.163666 14.533397 4.292688
2009-07-08 07:56:46 51°21.303 3°3.692 22.981 2.15974 14.504869 4.292688
2009-07-08 07:56:52 51°21.307 3°3.708 22.9952 2.156331 14.48251 4.292688
2009-07-08 07:56:57 51°21.311 3°3.72 22.978 2.161186 14.519182 4.292688
2009-07-08 07:57:02 51°21.314 3°3.733 22.9893 2.16036 14.514178 4.257864
2009-07-08 07:57:06 51°21.316 3°3.744 22.9812 2.16036 14.514178 4.257864
2009-07-08 07:57:12 51°21.319 3°3.759 22.9881 2.155814 14.481098 4.292688
2009-07-08 07:57:16 51°21.323 3°3.769 22.9877 2.160153 14.512662 4.292688
2009-07-08 07:57:22 51°21.326 3°3.785 22.9893 2.156744 14.487654 4.292688
2009-07-08 07:57:26 51°21.328 3°3.795 22.9744 2.160463 14.515465 4.292688
2009-07-08 07:57:32 51°21.332 3°3.811 22.9811 2.162529 14.529829 4.292688
2009-07-08 07:57:37 51°21.336 3°3.823 22.993 2.157261 14.4925 4.292688
2009-07-08 07:57:42 51°21.338 3°3.837 22.995 2.157261 14.4925 4.292688
2009-07-08 07:57:46 51°21.342 3°3.847 23.0037 2.164699 14.546013 4.292688
2009-07-08 07:57:52 51°21.344 3°3.863 22.9937 2.159947 14.508765 4.292688
2009-07-08 07:57:57 51°21.348 3°3.875 22.9857 2.163769 14.53495 4.292688
2009-07-08 07:58:02 51°21.351 3°3.888 23.0041 2.158087 14.493541 4.292688
2009-07-08 07:58:06 51°21.354 3°3.899 22.9949 2.163562 14.53264 4.257864
2009-07-08 07:58:12 51°21.358 3°3.914 23.0029 2.163562 14.53264 4.257864
2009-07-08 07:58:17 51°21.361 3°3.927 22.9898 2.160876 14.511352 4.292688
2009-07-08 07:58:22 51°21.364 3°3.94 22.9882 2.16129 14.51306 4.292688
2009-07-08 07:58:26 51°21.367 3°3.95 22.9865 2.163149 14.52749 4.292688
2009-07-08 07:58:32 51°21.371 3°3.965 23.0035 2.16129 14.515176 4.257864
2009-07-08 07:58:37 51°21.373 3°3.978 22.9976 2.16129 14.515176 4.257864
2009-07-08 07:58:42 51°21.377 3°3.99 22.9856 2.160463 14.508057 4.292688
2009-07-08 07:58:47 51°21.379 3°4.003 22.998 2.154368 14.462052 4.292688
2009-07-08 07:58:52 51°21.383 3°4.016 23.0035 2.163046 14.525144 4.292688
2009-07-08 07:58:57 51°21.385 3°4.028 22.9928 2.163356 14.527682 4.292688
2009-07-08 07:59:02 51°21.389 3°4.041 23.0052 2.160773 14.509801 4.257864
2009-07-08 07:59:07 51°21.392 3°4.053 22.9971 2.160773 14.509801 4.257864
2009-07-08 07:59:12 51°21.395 3°4.065 23.0031 2.159327 14.500253 4.292688
2009-07-08 07:59:17 51°21.398 3°4.078 23.0099 2.157467 14.487939 4.257864
2009-07-08 07:59:22 51°21.401 3°4.091 23.0179 2.159017 14.501152 4.292688
2009-07-08 07:59:27 51°21.404 3°4.103 23.0179 2.155298 14.474142 4.292688